SWR87F CYUL-LSZH
Flight info
| Callsign | SWR87F |
|---|---|
| Flight time | 7h 35m |
| Altitude | 37000 |
| Route | DCT SUXET DCT NOVUN DCT ESRAM DCT RABIK Q951 DANOL N475B BUDAR/M078F370 DCT 5030N05000W 53N040W 54N030W 55N020W DCT RESNO/N0446F370 DCT NETKI DCT CON/N0443F390 DCT MORAG DCT NUCHU DCT BOGNA UL612 VEULE/N0423F350 DCT TEPRI UN491 POGZI DCT GELTA DCT MANAG DCT PEVIT DCT BLM BLM3G |
| Aircraft | A343/H-SDE2E3FGHIJ4J5M1P2RWXYZ/LB1D1 |
Departure
| Time | 2026-05-04 20:59 |
|---|---|
| Airport | Montreal / Pierre Elliott Trudeau International Airport (CYUL) |
Arrival
| Time | 2026-05-05 04:35 |
|---|---|
| Airport | Zürich Airport (LSZH) |
| Time | Latitude | Longitude | Altitude | Speed | Heading |
|---|---|---|---|---|---|
| 2026-05-04 20:33 | 45.45983 | -73.75457 | 109 ft | 0 kts | 194° |
| 2026-05-04 20:45 | 45.45999 | -73.75451 | 108 ft | 4 kts | 194° |
| 2026-05-04 20:45 | 45.46020 | -73.75444 | 107 ft | 4 kts | 193° |
| 2026-05-04 20:45 | 45.46046 | -73.75441 | 108 ft | 4 kts | 162° |
| 2026-05-04 20:45 | 45.46064 | -73.75459 | 105 ft | 4 kts | 100° |
| 2026-05-04 20:46 | 45.46064 | -73.75496 | 104 ft | 4 kts | 88° |
| 2026-05-04 20:46 | 45.46063 | -73.75511 | 106 ft | 0 kts | 88° |
| 2026-05-04 20:49 | 45.46064 | -73.75505 | 105 ft | 1 kts | 88° |
| 2026-05-04 20:49 | 45.46064 | -73.75482 | 104 ft | 3 kts | 88° |
| 2026-05-04 20:49 | 45.46067 | -73.75438 | 108 ft | 6 kts | 81° |
| 2026-05-04 20:49 | 45.46093 | -73.75384 | 106 ft | 8 kts | 37° |
| 2026-05-04 20:50 | 45.46141 | -73.75316 | 105 ft | 11 kts | 62° |
| 2026-05-04 20:50 | 45.46149 | -73.75201 | 105 ft | 12 kts | 88° |
| 2026-05-04 20:50 | 45.46151 | -73.75085 | 107 ft | 12 kts | 89° |
| 2026-05-04 20:50 | 45.46153 | -73.74974 | 108 ft | 11 kts | 88° |
| 2026-05-04 20:51 | 45.46158 | -73.74854 | 108 ft | 13 kts | 87° |
| 2026-05-04 20:51 | 45.46162 | -73.74708 | 108 ft | 16 kts | 88° |
| 2026-05-04 20:51 | 45.46138 | -73.74547 | 107 ft | 17 kts | 106° |
| 2026-05-04 20:51 | 45.46131 | -73.74368 | 107 ft | 19 kts | 88° |
| 2026-05-04 20:52 | 45.46136 | -73.74174 | 108 ft | 20 kts | 88° |
| 2026-05-04 20:52 | 45.46186 | -73.73998 | 109 ft | 19 kts | 44° |
| 2026-05-04 20:52 | 45.46284 | -73.73869 | 110 ft | 19 kts | 43° |
| 2026-05-04 20:52 | 45.46377 | -73.73747 | 110 ft | 18 kts | 42° |
| 2026-05-04 20:53 | 45.46466 | -73.73632 | 112 ft | 17 kts | 43° |
| 2026-05-04 20:53 | 45.46550 | -73.73518 | 112 ft | 17 kts | 44° |
| 2026-05-04 20:53 | 45.46636 | -73.73406 | 112 ft | 17 kts | 40° |
| 2026-05-04 20:53 | 45.46724 | -73.73295 | 113 ft | 17 kts | 42° |
| 2026-05-04 20:54 | 45.46810 | -73.73181 | 113 ft | 17 kts | 43° |
| 2026-05-04 20:54 | 45.46897 | -73.73066 | 119 ft | 17 kts | 43° |
| 2026-05-04 20:54 | 45.46983 | -73.72953 | 116 ft | 17 kts | 43° |
| 2026-05-04 20:54 | 45.47070 | -73.72838 | 116 ft | 17 kts | 42° |
| 2026-05-04 20:55 | 45.47161 | -73.72721 | 118 ft | 18 kts | 43° |
| 2026-05-04 20:55 | 45.47254 | -73.72599 | 118 ft | 18 kts | 43° |
| 2026-05-04 20:55 | 45.47349 | -73.72474 | 118 ft | 19 kts | 43° |
| 2026-05-04 20:55 | 45.47445 | -73.72347 | 119 ft | 19 kts | 43° |
| 2026-05-04 20:56 | 45.47546 | -73.72215 | 120 ft | 19 kts | 43° |
| 2026-05-04 20:56 | 45.47646 | -73.72083 | 121 ft | 20 kts | 43° |
| 2026-05-04 20:56 | 45.47747 | -73.71951 | 121 ft | 20 kts | 43° |
| 2026-05-04 20:56 | 45.47847 | -73.71819 | 122 ft | 16 kts | 45° |
| 2026-05-04 20:57 | 45.47855 | -73.71713 | 121 ft | 10 kts | 116° |
| 2026-05-04 20:57 | 45.47813 | -73.71635 | 121 ft | 10 kts | 131° |
| 2026-05-04 20:57 | 45.47768 | -73.71576 | 124 ft | 7 kts | 148° |
| 2026-05-04 20:57 | 45.47729 | -73.71575 | 124 ft | 5 kts | 198° |
| 2026-05-04 20:58 | 45.47711 | -73.71594 | 123 ft | 0 kts | 219° |
| 2026-05-04 20:58 | 45.47696 | -73.71612 | 123 ft | 15 kts | 220° |
| 2026-05-04 20:58 | 45.47481 | -73.71890 | 124 ft | 68 kts | 223° |
| 2026-05-04 20:58 | 45.47016 | -73.72503 | 118 ft | 113 kts | 223° |
| 2026-05-04 20:59 | 45.46342 | -73.73379 | 114 ft | 149 kts | 222° |
| 2026-05-04 20:59 | 45.45534 | -73.74413 | 400 ft | 157 kts | 221° |
| 2026-05-04 20:59 | 45.44695 | -73.75437 | 834 ft | 161 kts | 220° |
| 2026-05-04 20:59 | 45.43828 | -73.76477 | 1360 ft | 164 kts | 222° |
| 2026-05-04 21:00 | 45.42969 | -73.77550 | 1860 ft | 165 kts | 223° |
| 2026-05-04 21:00 | 45.42135 | -73.78649 | 2357 ft | 162 kts | 226° |
| 2026-05-04 21:00 | 45.41341 | -73.79760 | 2814 ft | 159 kts | 225° |
| 2026-05-04 21:00 | 45.40451 | -73.80673 | 3219 ft | 162 kts | 204° |
| 2026-05-04 21:01 | 45.39294 | -73.80633 | 3503 ft | 179 kts | 162° |
| 2026-05-04 21:01 | 45.38209 | -73.79651 | 3829 ft | 191 kts | 145° |
| 2026-05-04 21:01 | 45.37344 | -73.78151 | 4162 ft | 202 kts | 124° |
| 2026-05-04 21:01 | 45.36621 | -73.76415 | 4459 ft | 208 kts | 129° |
| 2026-05-04 21:02 | 45.35942 | -73.74517 | 4635 ft | 224 kts | 118° |
| 2026-05-04 21:02 | 45.35535 | -73.73130 | 4753 ft | 234 kts | 115° |
| 2026-05-04 21:02 | 45.34936 | -73.70877 | 4901 ft | 254 kts | 113° |
| 2026-05-04 21:02 | 45.34315 | -73.68423 | 5133 ft | 273 kts | 112° |
| 2026-05-04 21:03 | 45.33658 | -73.65820 | 5461 ft | 285 kts | 112° |
| 2026-05-04 21:03 | 45.32973 | -73.63140 | 5985 ft | 292 kts | 113° |
| 2026-05-04 21:03 | 45.32263 | -73.60407 | 6479 ft | 298 kts | 113° |
| 2026-05-04 21:03 | 45.31529 | -73.57629 | 7011 ft | 303 kts | 113° |
| 2026-05-04 21:04 | 45.30778 | -73.54813 | 7540 ft | 307 kts | 112° |
| 2026-05-04 21:04 | 45.30014 | -73.51957 | 8093 ft | 311 kts | 113° |
| 2026-05-04 21:04 | 45.29236 | -73.49066 | 8622 ft | 316 kts | 113° |
| 2026-05-04 21:04 | 45.28445 | -73.46133 | 9135 ft | 321 kts | 112° |
| 2026-05-04 21:05 | 45.27641 | -73.43156 | 9657 ft | 325 kts | 112° |
| 2026-05-04 21:05 | 45.26829 | -73.40152 | 10176 ft | 328 kts | 112° |
| 2026-05-04 21:05 | 45.25998 | -73.37080 | 10443 ft | 340 kts | 112° |
| 2026-05-04 21:05 | 45.25269 | -73.33825 | 10657 ft | 354 kts | 101° |
| 2026-05-04 21:06 | 45.25105 | -73.30288 | 10883 ft | 366 kts | 86° |
| 2026-05-04 21:06 | 45.25367 | -73.26655 | 11157 ft | 374 kts | 79° |
| 2026-05-04 21:06 | 45.25872 | -73.23012 | 11563 ft | 378 kts | 75° |
| 2026-05-04 21:06 | 45.26484 | -73.19363 | 12025 ft | 382 kts | 74° |
| 2026-05-04 21:07 | 45.27115 | -73.15688 | 12464 ft | 386 kts | 75° |
| 2026-05-04 21:07 | 45.27543 | -73.11941 | 12878 ft | 392 kts | 82° |
| 2026-05-04 21:07 | 45.27772 | -73.08071 | 13382 ft | 395 kts | 86° |
| 2026-05-04 21:07 | 45.27911 | -73.04173 | 13850 ft | 397 kts | 86° |
| 2026-05-04 21:08 | 45.28033 | -73.00243 | 14262 ft | 399 kts | 86° |
| 2026-05-04 21:08 | 45.28168 | -72.96304 | 14680 ft | 402 kts | 86° |
| 2026-05-04 21:08 | 45.28331 | -72.92257 | 15103 ft | 406 kts | 85° |
| 2026-05-04 21:08 | 45.28510 | -72.88298 | 15504 ft | 409 kts | 84° |
| 2026-05-04 21:09 | 45.28709 | -72.84211 | 15949 ft | 411 kts | 84° |
| 2026-05-04 21:09 | 45.28911 | -72.80211 | 16391 ft | 413 kts | 84° |
| 2026-05-04 21:09 | 45.29120 | -72.76127 | 16828 ft | 416 kts | 84° |
| 2026-05-04 21:09 | 45.29329 | -72.72022 | 17276 ft | 418 kts | 83° |
| 2026-05-04 21:10 | 45.29534 | -72.67897 | 17739 ft | 420 kts | 83° |
| 2026-05-04 21:10 | 45.29736 | -72.63741 | 18188 ft | 423 kts | 83° |
| 2026-05-04 21:10 | 45.29936 | -72.59570 | 18608 ft | 424 kts | 83° |
| 2026-05-04 21:10 | 45.30153 | -72.55381 | 19019 ft | 426 kts | 83° |
| 2026-05-04 21:11 | 45.30387 | -72.51171 | 19440 ft | 429 kts | 82° |
| 2026-05-04 21:11 | 45.30627 | -72.46943 | 19865 ft | 431 kts | 82° |
| 2026-05-04 21:11 | 45.30867 | -72.42688 | 20273 ft | 433 kts | 82° |
| 2026-05-04 21:11 | 45.31105 | -72.38416 | 20693 ft | 435 kts | 82° |
| 2026-05-04 21:12 | 45.31340 | -72.34123 | 21117 ft | 437 kts | 82° |
| 2026-05-04 21:12 | 45.31574 | -72.29805 | 21497 ft | 440 kts | 82° |
| 2026-05-04 21:12 | 45.31807 | -72.25456 | 21896 ft | 442 kts | 82° |
| 2026-05-04 21:12 | 45.32038 | -72.21086 | 22267 ft | 445 kts | 82° |
| 2026-05-04 21:13 | 45.32269 | -72.16696 | 22676 ft | 447 kts | 82° |
| 2026-05-04 21:13 | 45.32498 | -72.12283 | 23076 ft | 449 kts | 82° |
| 2026-05-04 21:13 | 45.32727 | -72.07856 | 23438 ft | 451 kts | 82° |
| 2026-05-04 21:13 | 45.32955 | -72.03396 | 23730 ft | 454 kts | 82° |
| 2026-05-04 21:14 | 45.33184 | -71.98914 | 24033 ft | 456 kts | 82° |
| 2026-05-04 21:14 | 45.33411 | -71.94410 | 24358 ft | 458 kts | 82° |
| 2026-05-04 21:14 | 45.33637 | -71.89890 | 24675 ft | 460 kts | 81° |
| 2026-05-04 21:14 | 45.33866 | -71.85341 | 24948 ft | 463 kts | 81° |
| 2026-05-04 21:15 | 45.34200 | -71.80858 | 25242 ft | 462 kts | 77° |
| 2026-05-04 21:15 | 45.34690 | -71.76341 | 25551 ft | 462 kts | 75° |
| 2026-05-04 21:15 | 45.35240 | -71.71834 | 25854 ft | 464 kts | 74° |
| 2026-05-04 21:15 | 45.35798 | -71.67311 | 26166 ft | 465 kts | 74° |
| 2026-05-04 21:16 | 45.36343 | -71.62768 | 26460 ft | 467 kts | 75° |
| 2026-05-04 21:16 | 45.36868 | -71.58196 | 26749 ft | 470 kts | 75° |
| 2026-05-04 21:16 | 45.37377 | -71.53600 | 27052 ft | 472 kts | 75° |
| 2026-05-04 21:16 | 45.37875 | -71.48983 | 27357 ft | 473 kts | 75° |
| 2026-05-04 21:17 | 45.38367 | -71.44351 | 27699 ft | 474 kts | 75° |
| 2026-05-04 21:17 | 45.38857 | -71.39711 | 28001 ft | 475 kts | 75° |
| 2026-05-04 21:17 | 45.39346 | -71.35052 | 28294 ft | 477 kts | 75° |
| 2026-05-04 21:17 | 45.39836 | -71.30375 | 28563 ft | 479 kts | 75° |
| 2026-05-04 21:18 | 45.40327 | -71.25678 | 28834 ft | 481 kts | 75° |
| 2026-05-04 21:18 | 45.40818 | -71.20961 | 29140 ft | 483 kts | 74° |
| 2026-05-04 21:18 | 45.41309 | -71.16231 | 29416 ft | 484 kts | 74° |
| 2026-05-04 21:18 | 45.41794 | -71.11546 | 29666 ft | 486 kts | 74° |
| 2026-05-04 21:19 | 45.42285 | -71.06786 | 29930 ft | 487 kts | 74° |
| 2026-05-04 21:19 | 45.42776 | -71.02003 | 30189 ft | 488 kts | 74° |
| 2026-05-04 21:19 | 45.43190 | -70.97196 | 30474 ft | 491 kts | 78° |
| 2026-05-04 21:19 | 45.43444 | -70.92328 | 30664 ft | 496 kts | 80° |
| 2026-05-04 21:20 | 45.43622 | -70.87406 | 30844 ft | 499 kts | 81° |
| 2026-05-04 21:20 | 45.43783 | -70.82460 | 31028 ft | 501 kts | 81° |
| 2026-05-04 21:20 | 45.43955 | -70.77499 | 31234 ft | 503 kts | 81° |
| 2026-05-04 21:20 | 45.44147 | -70.72516 | 31434 ft | 505 kts | 81° |
| 2026-05-04 21:21 | 45.44354 | -70.67517 | 31619 ft | 507 kts | 80° |
| 2026-05-04 21:21 | 45.44584 | -70.62496 | 31794 ft | 508 kts | 79° |
| 2026-05-04 21:21 | 45.44983 | -70.57519 | 32075 ft | 505 kts | 76° |
| 2026-05-04 21:21 | 45.45505 | -70.52578 | 32335 ft | 504 kts | 75° |
| 2026-05-04 21:22 | 45.46068 | -70.47651 | 32599 ft | 504 kts | 75° |
| 2026-05-04 21:22 | 45.46627 | -70.42717 | 32846 ft | 505 kts | 75° |
| 2026-05-04 21:22 | 45.47166 | -70.37769 | 33082 ft | 506 kts | 76° |
| 2026-05-04 21:22 | 45.47684 | -70.32804 | 33314 ft | 507 kts | 77° |
| 2026-05-04 21:23 | 45.48185 | -70.27827 | 33528 ft | 508 kts | 77° |
| 2026-05-04 21:23 | 45.48675 | -70.22844 | 33755 ft | 508 kts | 77° |
| 2026-05-04 21:23 | 45.49159 | -70.17856 | 33967 ft | 508 kts | 78° |
| 2026-05-04 21:23 | 45.49641 | -70.12866 | 34184 ft | 508 kts | 78° |
| 2026-05-04 21:24 | 45.50119 | -70.07882 | 34387 ft | 508 kts | 78° |
| 2026-05-04 21:24 | 45.50597 | -70.02888 | 34558 ft | 508 kts | 79° |
| 2026-05-04 21:24 | 45.51073 | -69.97895 | 34741 ft | 508 kts | 79° |
| 2026-05-04 21:24 | 45.51547 | -69.92900 | 34911 ft | 508 kts | 79° |
| 2026-05-04 21:25 | 45.52020 | -69.87908 | 35082 ft | 509 kts | 79° |
| 2026-05-04 21:25 | 45.52491 | -69.82906 | 35263 ft | 508 kts | 79° |
| 2026-05-04 21:25 | 45.52959 | -69.77914 | 35431 ft | 509 kts | 79° |
| 2026-05-04 21:25 | 45.53426 | -69.72914 | 35601 ft | 509 kts | 80° |
| 2026-05-04 21:26 | 45.53891 | -69.67912 | 35775 ft | 509 kts | 80° |
| 2026-05-04 21:26 | 45.54353 | -69.62914 | 35970 ft | 508 kts | 80° |
| 2026-05-04 21:26 | 45.54813 | -69.57912 | 36132 ft | 508 kts | 80° |
| 2026-05-04 21:26 | 45.55270 | -69.52916 | 36285 ft | 509 kts | 81° |
| 2026-05-04 21:27 | 45.55726 | -69.47905 | 36444 ft | 509 kts | 81° |
| 2026-05-04 21:27 | 45.56179 | -69.42899 | 36601 ft | 509 kts | 81° |
| 2026-05-04 21:27 | 45.56630 | -69.37895 | 36744 ft | 509 kts | 81° |
| 2026-05-04 21:27 | 45.57081 | -69.32871 | 36782 ft | 511 kts | 81° |
| 2026-05-04 21:28 | 45.57974 | -69.22844 | 36781 ft | 508 kts | 81° |
| 2026-05-04 21:28 | 45.58848 | -69.12915 | 36781 ft | 508 kts | 81° |
| 2026-05-04 21:29 | 45.59722 | -69.02899 | 36780 ft | 508 kts | 81° |
| 2026-05-04 21:29 | 45.60586 | -68.92883 | 36781 ft | 508 kts | 82° |
| 2026-05-04 21:30 | 45.61442 | -68.82865 | 36778 ft | 508 kts | 82° |
| 2026-05-04 21:30 | 45.62289 | -68.72839 | 36777 ft | 509 kts | 82° |
| 2026-05-04 21:31 | 45.63546 | -68.57772 | 36777 ft | 509 kts | 82° |
| 2026-05-04 21:32 | 45.64372 | -68.47724 | 36777 ft | 509 kts | 82° |
| 2026-05-04 21:32 | 45.65190 | -68.37669 | 36780 ft | 509 kts | 83° |
| 2026-05-04 21:33 | 45.66000 | -68.27611 | 36786 ft | 509 kts | 83° |
| 2026-05-04 21:33 | 45.66800 | -68.17552 | 36784 ft | 509 kts | 83° |
| 2026-05-04 21:34 | 45.67590 | -68.07498 | 36789 ft | 508 kts | 83° |
| 2026-05-04 21:34 | 45.68371 | -67.97459 | 36785 ft | 508 kts | 83° |
| 2026-05-04 21:35 | 45.69143 | -67.87412 | 36784 ft | 509 kts | 83° |
| 2026-05-04 21:35 | 45.70837 | -67.77644 | 36782 ft | 506 kts | 64° |
| 2026-05-04 21:36 | 45.73904 | -67.68607 | 36781 ft | 505 kts | 60° |
| 2026-05-04 21:36 | 45.77187 | -67.59721 | 36803 ft | 505 kts | 60° |
| 2026-05-04 21:37 | 45.80481 | -67.50839 | 36777 ft | 505 kts | 60° |
| 2026-05-04 21:37 | 45.83744 | -67.41932 | 36778 ft | 505 kts | 60° |
| 2026-05-04 21:38 | 45.86989 | -67.32995 | 36765 ft | 506 kts | 60° |
| 2026-05-04 21:38 | 45.90234 | -67.24020 | 36766 ft | 507 kts | 60° |
| 2026-05-04 21:39 | 45.93456 | -67.15080 | 36763 ft | 507 kts | 61° |
| 2026-05-04 21:39 | 45.96690 | -67.06080 | 36748 ft | 507 kts | 61° |
| 2026-05-04 21:40 | 45.99916 | -66.97070 | 36757 ft | 507 kts | 61° |
| 2026-05-04 21:40 | 46.03135 | -66.88052 | 36728 ft | 507 kts | 61° |
| 2026-05-04 21:41 | 46.06347 | -66.79023 | 36729 ft | 506 kts | 61° |
| 2026-05-04 21:41 | 46.09547 | -66.69998 | 36718 ft | 506 kts | 61° |
| 2026-05-04 21:42 | 46.12741 | -66.60959 | 36706 ft | 506 kts | 61° |
| 2026-05-04 21:42 | 46.15928 | -66.51908 | 36718 ft | 506 kts | 61° |
| 2026-05-04 21:43 | 46.19105 | -66.42854 | 36711 ft | 506 kts | 62° |
| 2026-05-04 21:43 | 46.22272 | -66.33799 | 36707 ft | 505 kts | 62° |
| 2026-05-04 21:44 | 46.25428 | -66.24743 | 36704 ft | 505 kts | 62° |
| 2026-05-04 21:44 | 46.28577 | -66.15678 | 36688 ft | 505 kts | 62° |
| 2026-05-04 21:45 | 46.31721 | -66.06597 | 36695 ft | 505 kts | 62° |
| 2026-05-04 21:45 | 46.34857 | -65.97509 | 36690 ft | 505 kts | 62° |
| 2026-05-04 21:46 | 46.37983 | -65.88414 | 36690 ft | 505 kts | 62° |
| 2026-05-04 21:46 | 46.41104 | -65.79305 | 36679 ft | 505 kts | 62° |
| 2026-05-04 21:47 | 46.44218 | -65.70183 | 36683 ft | 505 kts | 62° |
| 2026-05-04 21:47 | 46.47319 | -65.61070 | 36672 ft | 504 kts | 63° |
| 2026-05-04 21:48 | 46.50410 | -65.51952 | 36667 ft | 503 kts | 63° |
| 2026-05-04 21:48 | 46.53497 | -65.42819 | 36666 ft | 504 kts | 63° |
| 2026-05-04 21:49 | 46.56581 | -65.33658 | 36653 ft | 505 kts | 63° |
| 2026-05-04 21:49 | 46.59660 | -65.24484 | 36660 ft | 505 kts | 63° |
| 2026-05-04 21:50 | 46.62710 | -65.15360 | 36654 ft | 505 kts | 63° |
| 2026-05-04 21:50 | 46.65771 | -65.06173 | 36644 ft | 505 kts | 63° |
| 2026-05-04 21:51 | 46.68826 | -64.96969 | 36649 ft | 505 kts | 63° |
| 2026-05-04 21:51 | 46.71379 | -64.89255 | 36637 ft | 504 kts | 63° |
| 2026-05-04 21:52 | 46.74414 | -64.80052 | 36652 ft | 503 kts | 64° |
| 2026-05-04 21:52 | 46.77440 | -64.70844 | 36639 ft | 504 kts | 64° |
| 2026-05-04 21:53 | 46.80463 | -64.61614 | 36645 ft | 504 kts | 64° |
| 2026-05-04 21:53 | 46.83457 | -64.52439 | 36636 ft | 504 kts | 64° |
| 2026-05-04 21:54 | 46.86459 | -64.43204 | 36644 ft | 503 kts | 64° |
| 2026-05-04 21:54 | 46.89448 | -64.33980 | 36635 ft | 502 kts | 64° |
| 2026-05-04 21:55 | 46.92427 | -64.24752 | 36650 ft | 502 kts | 64° |
| 2026-05-04 21:55 | 46.95399 | -64.15514 | 36642 ft | 502 kts | 64° |
| 2026-05-04 21:56 | 46.98361 | -64.06270 | 36647 ft | 501 kts | 64° |
| 2026-05-04 21:56 | 47.01312 | -63.97031 | 36647 ft | 500 kts | 64° |
| 2026-05-04 21:57 | 47.04250 | -63.87797 | 36631 ft | 500 kts | 65° |
| 2026-05-04 21:57 | 47.07182 | -63.78549 | 36625 ft | 500 kts | 65° |
| 2026-05-04 21:58 | 47.10108 | -63.69287 | 36625 ft | 500 kts | 65° |
| 2026-05-04 21:58 | 47.13022 | -63.60027 | 36617 ft | 500 kts | 65° |
| 2026-05-04 21:59 | 47.15928 | -63.50759 | 36619 ft | 500 kts | 65° |
| 2026-05-04 21:59 | 47.18834 | -63.41459 | 36622 ft | 501 kts | 65° |
| 2026-05-04 22:00 | 47.21733 | -63.32143 | 36621 ft | 501 kts | 65° |
| 2026-05-04 22:00 | 47.24628 | -63.22809 | 36644 ft | 501 kts | 65° |
| 2026-05-04 22:01 | 47.27494 | -63.13534 | 36626 ft | 501 kts | 65° |
| 2026-05-04 22:01 | 47.30370 | -63.04192 | 36626 ft | 501 kts | 65° |
| 2026-05-04 22:02 | 47.33238 | -62.94839 | 36622 ft | 501 kts | 66° |
| 2026-05-04 22:02 | 47.36097 | -62.85481 | 36616 ft | 500 kts | 66° |
| 2026-05-04 22:03 | 47.38947 | -62.76121 | 36620 ft | 500 kts | 66° |
| 2026-05-04 22:03 | 47.41790 | -62.66743 | 36619 ft | 500 kts | 66° |
| 2026-05-04 22:04 | 47.44626 | -62.57358 | 36608 ft | 500 kts | 66° |
| 2026-05-04 22:04 | 47.47453 | -62.47965 | 36608 ft | 500 kts | 66° |
| 2026-05-04 22:05 | 47.50273 | -62.38558 | 36609 ft | 501 kts | 66° |
| 2026-05-04 22:05 | 47.53087 | -62.29139 | 36595 ft | 501 kts | 66° |
| 2026-05-04 22:06 | 47.55895 | -62.19702 | 36598 ft | 501 kts | 66° |
| 2026-05-04 22:06 | 47.58694 | -62.10258 | 36589 ft | 502 kts | 66° |
| 2026-05-04 22:07 | 47.61491 | -62.00785 | 36589 ft | 502 kts | 67° |
| 2026-05-04 22:07 | 47.64281 | -61.91300 | 36571 ft | 502 kts | 67° |
| 2026-05-04 22:08 | 47.67045 | -61.81865 | 36553 ft | 502 kts | 67° |
| 2026-05-04 22:08 | 47.69818 | -61.72364 | 36564 ft | 502 kts | 67° |
| 2026-05-04 22:09 | 47.72585 | -61.62849 | 36561 ft | 502 kts | 67° |
| 2026-05-04 22:09 | 47.75344 | -61.53321 | 36554 ft | 502 kts | 67° |
| 2026-05-04 22:10 | 47.78097 | -61.43778 | 36548 ft | 503 kts | 68° |
| 2026-05-04 22:10 | 47.80846 | -61.34209 | 36554 ft | 503 kts | 68° |
| 2026-05-04 22:11 | 47.83588 | -61.24629 | 36555 ft | 503 kts | 68° |
| 2026-05-04 22:11 | 47.86321 | -61.15041 | 36550 ft | 503 kts | 68° |
| 2026-05-04 22:12 | 47.89045 | -61.05449 | 36559 ft | 502 kts | 68° |
| 2026-05-04 22:12 | 47.91758 | -60.95852 | 36559 ft | 502 kts | 68° |
| 2026-05-04 22:13 | 47.94446 | -60.86311 | 36548 ft | 502 kts | 68° |
| 2026-05-04 22:13 | 47.97143 | -60.76698 | 36538 ft | 502 kts | 68° |
| 2026-05-04 22:14 | 47.99839 | -60.67048 | 36536 ft | 505 kts | 68° |
| 2026-05-04 22:14 | 48.02534 | -60.57365 | 36545 ft | 505 kts | 68° |
| 2026-05-04 22:15 | 48.05220 | -60.47673 | 36537 ft | 505 kts | 68° |
| 2026-05-04 22:15 | 48.07900 | -60.37964 | 36527 ft | 505 kts | 68° |
| 2026-05-04 22:16 | 48.10571 | -60.28247 | 36531 ft | 505 kts | 68° |
| 2026-05-04 22:16 | 48.13234 | -60.18521 | 36523 ft | 505 kts | 68° |
| 2026-05-04 22:17 | 48.15891 | -60.08776 | 36526 ft | 505 kts | 68° |
| 2026-05-04 22:17 | 48.18538 | -59.99027 | 36514 ft | 505 kts | 68° |
| 2026-05-04 22:18 | 48.21178 | -59.89262 | 36519 ft | 505 kts | 69° |
| 2026-05-04 22:18 | 48.23809 | -59.79494 | 36506 ft | 505 kts | 69° |
| 2026-05-04 22:19 | 48.26428 | -59.69725 | 36501 ft | 505 kts | 69° |
| 2026-05-04 22:19 | 48.29040 | -59.59941 | 36517 ft | 505 kts | 69° |
| 2026-05-04 22:20 | 48.31642 | -59.50155 | 36497 ft | 504 kts | 69° |
| 2026-05-04 22:20 | 48.34231 | -59.40380 | 36510 ft | 503 kts | 70° |
| 2026-05-04 22:21 | 48.36809 | -59.30602 | 36491 ft | 503 kts | 70° |
| 2026-05-04 22:21 | 48.39367 | -59.20855 | 36496 ft | 505 kts | 70° |
| 2026-05-04 22:22 | 48.41944 | -59.11002 | 36489 ft | 506 kts | 70° |
| 2026-05-04 22:22 | 48.44513 | -59.01134 | 36485 ft | 506 kts | 70° |
| 2026-05-04 22:23 | 48.47071 | -58.91268 | 36480 ft | 505 kts | 70° |
| 2026-05-04 22:23 | 48.49620 | -58.81393 | 36482 ft | 505 kts | 70° |
| 2026-05-04 22:24 | 48.52156 | -58.71522 | 36481 ft | 505 kts | 70° |
| 2026-05-04 22:24 | 48.54686 | -58.61628 | 36469 ft | 505 kts | 70° |
| 2026-05-04 22:25 | 48.57211 | -58.51718 | 36469 ft | 506 kts | 70° |
| 2026-05-04 22:25 | 48.59728 | -58.41796 | 36460 ft | 506 kts | 70° |
| 2026-05-04 22:26 | 48.62236 | -58.31865 | 36459 ft | 506 kts | 70° |
| 2026-05-04 22:26 | 48.64734 | -58.21932 | 36445 ft | 505 kts | 70° |
| 2026-05-04 22:27 | 48.67222 | -58.11990 | 36444 ft | 505 kts | 70° |
| 2026-05-04 22:27 | 48.69692 | -58.02078 | 36428 ft | 502 kts | 70° |
| 2026-05-04 22:28 | 48.72140 | -57.92215 | 36417 ft | 500 kts | 70° |
| 2026-05-04 22:28 | 48.74576 | -57.82354 | 36405 ft | 500 kts | 71° |
| 2026-05-04 22:29 | 48.77007 | -57.72467 | 36402 ft | 501 kts | 71° |
| 2026-05-04 22:29 | 48.79434 | -57.62556 | 36404 ft | 502 kts | 71° |
| 2026-05-04 22:30 | 48.81851 | -57.52637 | 36391 ft | 501 kts | 71° |
| 2026-05-04 22:30 | 48.84260 | -57.42710 | 36389 ft | 501 kts | 71° |
| 2026-05-04 22:31 | 48.86658 | -57.32778 | 36385 ft | 501 kts | 72° |
| 2026-05-04 22:31 | 48.89051 | -57.22828 | 36384 ft | 501 kts | 71° |
| 2026-05-04 22:32 | 48.91420 | -57.12932 | 36363 ft | 502 kts | 71° |
| 2026-05-04 22:32 | 48.93801 | -57.02937 | 36367 ft | 503 kts | 72° |
| 2026-05-04 22:33 | 48.96179 | -56.92918 | 36350 ft | 504 kts | 71° |
| 2026-05-04 22:33 | 48.98549 | -56.82885 | 36353 ft | 504 kts | 72° |
| 2026-05-04 22:34 | 49.00906 | -56.72852 | 36344 ft | 503 kts | 72° |
| 2026-05-04 22:34 | 49.03250 | -56.62832 | 36348 ft | 501 kts | 72° |
| 2026-05-04 22:35 | 49.05578 | -56.52835 | 36347 ft | 500 kts | 72° |
| 2026-05-04 22:35 | 49.07895 | -56.42838 | 36356 ft | 500 kts | 72° |
| 2026-05-04 22:36 | 49.10202 | -56.32834 | 36335 ft | 500 kts | 72° |
| 2026-05-04 22:36 | 49.12507 | -56.22796 | 36346 ft | 501 kts | 72° |
| 2026-05-04 22:37 | 49.14802 | -56.12752 | 36344 ft | 501 kts | 72° |
| 2026-05-04 22:37 | 49.17090 | -56.02692 | 36342 ft | 501 kts | 73° |
| 2026-05-04 22:38 | 49.19367 | -55.92634 | 36346 ft | 501 kts | 73° |
| 2026-05-04 22:38 | 49.21635 | -55.82568 | 36327 ft | 501 kts | 73° |
| 2026-05-04 22:39 | 49.23514 | -55.74192 | 36329 ft | 501 kts | 73° |
| 2026-05-04 22:39 | 49.25764 | -55.64114 | 36325 ft | 500 kts | 73° |
| 2026-05-04 22:40 | 49.28008 | -55.54021 | 36319 ft | 501 kts | 73° |
| 2026-05-04 22:40 | 49.30248 | -55.43890 | 36314 ft | 503 kts | 73° |
| 2026-05-04 22:41 | 49.32484 | -55.33730 | 36327 ft | 503 kts | 73° |
| 2026-05-04 22:41 | 49.34711 | -55.23563 | 36314 ft | 502 kts | 74° |
| 2026-05-04 22:42 | 49.36926 | -55.13404 | 36314 ft | 502 kts | 74° |
| 2026-05-04 22:42 | 49.39129 | -55.03246 | 36315 ft | 502 kts | 74° |
| 2026-05-04 22:43 | 49.41323 | -54.93076 | 36307 ft | 502 kts | 74° |
| 2026-05-04 22:43 | 49.43509 | -54.82898 | 36301 ft | 502 kts | 74° |
| 2026-05-04 22:44 | 49.45685 | -54.72714 | 36314 ft | 502 kts | 74° |
| 2026-05-04 22:44 | 49.47854 | -54.62511 | 36315 ft | 502 kts | 75° |
| 2026-05-04 22:45 | 49.50002 | -54.52359 | 36313 ft | 503 kts | 75° |
| 2026-05-04 22:45 | 49.53228 | -54.37013 | 36337 ft | 502 kts | 75° |
| 2026-05-04 22:46 | 49.55364 | -54.26785 | 36337 ft | 501 kts | 75° |
| 2026-05-04 22:46 | 49.57488 | -54.16569 | 36334 ft | 501 kts | 75° |
| 2026-05-04 22:47 | 49.59601 | -54.06349 | 36338 ft | 501 kts | 75° |
| 2026-05-04 22:47 | 49.61706 | -53.96113 | 36333 ft | 501 kts | 75° |
| 2026-05-04 22:48 | 49.63806 | -53.85850 | 36332 ft | 502 kts | 75° |
| 2026-05-04 22:48 | 49.65893 | -53.75599 | 36353 ft | 500 kts | 75° |
| 2026-05-04 22:49 | 49.67968 | -53.65358 | 36354 ft | 499 kts | 76° |
| 2026-05-04 22:49 | 49.70030 | -53.55119 | 36354 ft | 499 kts | 76° |
| 2026-05-04 22:50 | 49.72085 | -53.44867 | 36363 ft | 499 kts | 76° |
| 2026-05-04 22:50 | 49.74129 | -53.34617 | 36371 ft | 499 kts | 76° |
| 2026-05-04 22:51 | 49.76147 | -53.24439 | 36376 ft | 498 kts | 76° |
| 2026-05-04 22:51 | 49.78169 | -53.14190 | 36373 ft | 499 kts | 76° |
| 2026-05-04 22:52 | 49.80187 | -53.03893 | 36376 ft | 500 kts | 77° |
| 2026-05-04 22:52 | 49.82200 | -52.93581 | 36377 ft | 500 kts | 77° |
| 2026-05-04 22:53 | 49.84205 | -52.83256 | 36396 ft | 501 kts | 77° |
| 2026-05-04 22:53 | 49.86203 | -52.72922 | 36395 ft | 501 kts | 76° |
| 2026-05-04 22:54 | 49.88189 | -52.62583 | 36393 ft | 500 kts | 77° |
| 2026-05-04 22:54 | 49.90163 | -52.52242 | 36409 ft | 500 kts | 77° |
| 2026-05-04 22:55 | 49.92128 | -52.41890 | 36409 ft | 500 kts | 77° |
| 2026-05-04 22:55 | 49.94085 | -52.31543 | 36401 ft | 500 kts | 78° |
| 2026-05-04 22:56 | 49.96032 | -52.21183 | 36432 ft | 500 kts | 77° |
| 2026-05-04 22:56 | 49.97966 | -52.10817 | 36428 ft | 500 kts | 78° |
| 2026-05-04 22:57 | 49.99954 | -52.00472 | 36432 ft | 502 kts | 73° |
| 2026-05-04 22:57 | 50.02474 | -51.90339 | 36422 ft | 502 kts | 72° |
| 2026-05-04 22:58 | 50.05084 | -51.80277 | 36454 ft | 501 kts | 72° |
| 2026-05-04 22:58 | 50.07692 | -51.70244 | 36462 ft | 500 kts | 72° |
| 2026-05-04 22:59 | 50.10283 | -51.60204 | 36459 ft | 500 kts | 72° |
| 2026-05-04 22:59 | 50.12842 | -51.50219 | 36456 ft | 500 kts | 72° |
| 2026-05-04 23:00 | 50.15410 | -51.40147 | 36487 ft | 500 kts | 72° |
| 2026-05-04 23:00 | 50.17966 | -51.30077 | 36487 ft | 499 kts | 73° |
| 2026-05-04 23:01 | 50.20515 | -51.19992 | 36492 ft | 499 kts | 73° |
| 2026-05-04 23:01 | 50.23051 | -51.09913 | 36497 ft | 499 kts | 73° |
| 2026-05-04 23:02 | 50.25580 | -50.99818 | 36511 ft | 499 kts | 73° |
| 2026-05-04 23:02 | 50.28091 | -50.89753 | 36524 ft | 496 kts | 73° |
| 2026-05-04 23:03 | 50.30584 | -50.79714 | 36528 ft | 495 kts | 73° |
| 2026-05-04 23:03 | 50.33069 | -50.69656 | 36526 ft | 495 kts | 73° |
| 2026-05-04 23:04 | 50.35544 | -50.59594 | 36549 ft | 495 kts | 73° |
| 2026-05-04 23:04 | 50.38007 | -50.49538 | 36553 ft | 493 kts | 74° |
| 2026-05-04 23:05 | 50.40454 | -50.39501 | 36564 ft | 493 kts | 74° |
| 2026-05-04 23:05 | 50.42894 | -50.29445 | 36561 ft | 494 kts | 74° |
| 2026-05-04 23:06 | 50.45327 | -50.19373 | 36588 ft | 494 kts | 74° |
| 2026-05-04 23:06 | 50.47734 | -50.09364 | 36578 ft | 493 kts | 75° |
| 2026-05-04 23:07 | 50.50242 | -49.99356 | 36597 ft | 494 kts | 70° |
| 2026-05-04 23:07 | 50.53164 | -49.89567 | 36594 ft | 495 kts | 69° |
| 2026-05-04 23:08 | 50.56153 | -49.79817 | 36616 ft | 495 kts | 69° |
| 2026-05-04 23:08 | 50.59145 | -49.70065 | 36587 ft | 495 kts | 69° |
| 2026-05-04 23:09 | 50.62119 | -49.60310 | 36627 ft | 494 kts | 70° |
| 2026-05-04 23:09 | 50.65074 | -49.50556 | 36626 ft | 493 kts | 70° |
| 2026-05-04 23:10 | 50.68018 | -49.40792 | 36628 ft | 493 kts | 70° |
| 2026-05-04 23:10 | 50.70953 | -49.31020 | 36643 ft | 493 kts | 70° |
| 2026-05-04 23:11 | 50.73882 | -49.21228 | 36650 ft | 494 kts | 71° |
| 2026-05-04 23:11 | 50.76806 | -49.11418 | 36661 ft | 493 kts | 71° |
| 2026-05-04 23:12 | 50.79719 | -49.01605 | 36666 ft | 493 kts | 71° |
| 2026-05-04 23:12 | 50.82624 | -48.91777 | 36666 ft | 493 kts | 71° |
| 2026-05-04 23:13 | 50.85519 | -48.81942 | 36660 ft | 493 kts | 71° |
| 2026-05-04 23:13 | 50.88400 | -48.72121 | 36680 ft | 491 kts | 71° |
| 2026-05-04 23:14 | 50.91267 | -48.62300 | 36684 ft | 491 kts | 72° |
| 2026-05-04 23:14 | 50.94123 | -48.52474 | 36684 ft | 491 kts | 72° |
| 2026-05-04 23:15 | 50.96954 | -48.42697 | 36692 ft | 491 kts | 72° |
| 2026-05-04 23:15 | 50.99795 | -48.32847 | 36700 ft | 491 kts | 72° |
| 2026-05-04 23:16 | 51.02629 | -48.22981 | 36697 ft | 491 kts | 72° |
| 2026-05-04 23:16 | 51.05451 | -48.13113 | 36707 ft | 491 kts | 72° |
| 2026-05-04 23:17 | 51.08267 | -48.03226 | 36713 ft | 491 kts | 72° |
| 2026-05-04 23:17 | 51.11070 | -47.93349 | 36712 ft | 489 kts | 72° |
| 2026-05-04 23:18 | 51.13855 | -47.83488 | 36718 ft | 488 kts | 73° |
| 2026-05-04 23:18 | 51.16631 | -47.73618 | 36729 ft | 488 kts | 73° |
| 2026-05-04 23:19 | 51.19396 | -47.63743 | 36732 ft | 488 kts | 73° |
| 2026-05-04 23:19 | 51.22153 | -47.53860 | 36726 ft | 487 kts | 73° |
| 2026-05-04 23:20 | 51.24889 | -47.44017 | 36738 ft | 484 kts | 73° |
| 2026-05-04 23:20 | 51.27605 | -47.34197 | 36738 ft | 483 kts | 73° |
| 2026-05-04 23:21 | 51.30310 | -47.24369 | 36744 ft | 483 kts | 73° |
| 2026-05-04 23:21 | 51.33008 | -47.14525 | 36755 ft | 483 kts | 73° |
| 2026-05-04 23:22 | 51.35673 | -47.04773 | 36761 ft | 480 kts | 74° |
| 2026-05-04 23:22 | 51.38336 | -46.94984 | 36769 ft | 479 kts | 74° |
| 2026-05-04 23:23 | 51.40987 | -46.85191 | 36769 ft | 479 kts | 74° |
| 2026-05-04 23:23 | 51.43630 | -46.75386 | 36774 ft | 479 kts | 74° |
| 2026-05-04 23:24 | 51.46262 | -46.65581 | 36746 ft | 478 kts | 75° |
| 2026-05-04 23:24 | 51.48877 | -46.55808 | 36792 ft | 476 kts | 75° |
| 2026-05-04 23:25 | 51.51477 | -46.46039 | 36794 ft | 476 kts | 75° |
| 2026-05-04 23:25 | 51.54069 | -46.36258 | 36794 ft | 476 kts | 75° |
| 2026-05-04 23:26 | 51.56653 | -46.26469 | 36802 ft | 476 kts | 75° |
| 2026-05-04 23:26 | 51.59227 | -46.16675 | 36801 ft | 475 kts | 75° |
| 2026-05-04 23:27 | 51.61791 | -46.06880 | 36812 ft | 475 kts | 75° |
| 2026-05-04 23:27 | 51.64347 | -45.97067 | 36812 ft | 475 kts | 76° |
| 2026-05-04 23:28 | 51.66464 | -45.88912 | 36821 ft | 475 kts | 76° |
| 2026-05-04 23:28 | 51.69002 | -45.79093 | 36796 ft | 475 kts | 76° |
| 2026-05-04 23:29 | 51.71948 | -45.67640 | 36824 ft | 476 kts | 76° |
| 2026-05-04 23:29 | 51.74473 | -45.57783 | 36819 ft | 476 kts | 76° |
| 2026-05-04 23:30 | 51.76583 | -45.49510 | 36835 ft | 476 kts | 76° |
| 2026-05-04 23:30 | 51.79093 | -45.39629 | 36834 ft | 475 kts | 76° |
| 2026-05-04 23:31 | 51.81593 | -45.29745 | 36837 ft | 475 kts | 76° |
| 2026-05-04 23:31 | 51.84080 | -45.19869 | 36840 ft | 475 kts | 76° |
| 2026-05-04 23:32 | 51.86560 | -45.09971 | 36843 ft | 475 kts | 76° |
| 2026-05-04 23:32 | 51.89016 | -45.00129 | 36845 ft | 475 kts | 76° |
| 2026-05-04 23:33 | 51.91482 | -44.90205 | 36809 ft | 475 kts | 75° |
| 2026-05-04 23:33 | 51.93931 | -44.80310 | 36851 ft | 472 kts | 76° |
| 2026-05-04 23:34 | 51.96360 | -44.70450 | 36854 ft | 471 kts | 76° |
| 2026-05-04 23:34 | 51.98776 | -44.60586 | 36864 ft | 471 kts | 76° |
| 2026-05-04 23:35 | 52.01185 | -44.50710 | 36860 ft | 471 kts | 76° |
| 2026-05-04 23:35 | 52.03586 | -44.40825 | 36871 ft | 470 kts | 76° |
| 2026-05-04 23:36 | 52.05967 | -44.30989 | 36873 ft | 467 kts | 76° |
| 2026-05-04 23:36 | 52.08331 | -44.21170 | 36875 ft | 466 kts | 76° |
| 2026-05-04 23:37 | 52.10684 | -44.11344 | 36875 ft | 466 kts | 76° |
| 2026-05-04 23:37 | 52.13029 | -44.01511 | 36883 ft | 466 kts | 76° |
| 2026-05-04 23:38 | 52.15367 | -43.91667 | 36885 ft | 466 kts | 76° |
| 2026-05-04 23:38 | 52.17696 | -43.81814 | 36880 ft | 466 kts | 76° |
| 2026-05-04 23:39 | 52.20024 | -43.71918 | 36895 ft | 468 kts | 76° |
| 2026-05-04 23:39 | 52.22347 | -43.62001 | 36895 ft | 468 kts | 77° |
| 2026-05-04 23:40 | 52.24664 | -43.52067 | 36861 ft | 468 kts | 77° |
| 2026-05-04 23:40 | 52.26968 | -43.42144 | 36903 ft | 467 kts | 77° |
| 2026-05-04 23:41 | 52.29260 | -43.32226 | 36908 ft | 467 kts | 77° |
| 2026-05-04 23:41 | 52.31541 | -43.22303 | 36921 ft | 466 kts | 77° |
| 2026-05-04 23:42 | 52.33812 | -43.12377 | 36930 ft | 466 kts | 77° |
| 2026-05-04 23:42 | 52.36076 | -43.02438 | 36924 ft | 466 kts | 77° |
| 2026-05-04 23:43 | 52.38335 | -42.92467 | 36945 ft | 468 kts | 77° |
| 2026-05-04 23:43 | 52.40576 | -42.82536 | 36948 ft | 467 kts | 77° |
| 2026-05-04 23:44 | 52.42788 | -42.72732 | 36956 ft | 453 kts | 77° |
| 2026-05-04 23:44 | 52.44952 | -42.63054 | 36960 ft | 452 kts | 77° |
| 2026-05-04 23:45 | 52.47102 | -42.53365 | 36973 ft | 453 kts | 77° |
| 2026-05-04 23:45 | 52.49258 | -42.43607 | 36981 ft | 456 kts | 77° |
| 2026-05-04 23:46 | 52.51416 | -42.33816 | 36987 ft | 458 kts | 76° |
| 2026-05-04 23:46 | 52.53580 | -42.23955 | 36991 ft | 459 kts | 76° |
| 2026-05-04 23:47 | 52.55737 | -42.14080 | 37001 ft | 459 kts | 76° |
| 2026-05-04 23:47 | 52.57889 | -42.04173 | 37012 ft | 462 kts | 76° |
| 2026-05-04 23:48 | 52.60053 | -41.94158 | 37024 ft | 466 kts | 76° |
| 2026-05-04 23:48 | 52.62216 | -41.84113 | 37023 ft | 466 kts | 76° |
| 2026-05-04 23:49 | 52.64370 | -41.74063 | 37037 ft | 466 kts | 76° |
| 2026-05-04 23:49 | 52.66513 | -41.64008 | 37037 ft | 465 kts | 76° |
| 2026-05-04 23:50 | 52.68651 | -41.53916 | 37053 ft | 468 kts | 75° |
| 2026-05-04 23:50 | 52.70793 | -41.43760 | 37058 ft | 469 kts | 75° |
| 2026-05-04 23:51 | 52.72928 | -41.33591 | 37070 ft | 469 kts | 76° |
| 2026-05-04 23:51 | 52.75054 | -41.23415 | 37085 ft | 469 kts | 76° |
| 2026-05-04 23:52 | 52.77171 | -41.13228 | 37070 ft | 469 kts | 75° |
| 2026-05-04 23:52 | 52.79283 | -41.03009 | 37095 ft | 471 kts | 75° |
| 2026-05-04 23:53 | 52.81392 | -40.92752 | 37091 ft | 471 kts | 75° |
| 2026-05-04 23:53 | 52.83493 | -40.82484 | 37111 ft | 472 kts | 75° |
| 2026-05-04 23:54 | 52.85591 | -40.72173 | 37116 ft | 473 kts | 75° |
| 2026-05-04 23:54 | 52.87682 | -40.61844 | 37124 ft | 474 kts | 73° |
| 2026-05-04 23:55 | 52.89756 | -40.51548 | 37125 ft | 475 kts | 74° |
| 2026-05-04 23:56 | 52.92876 | -40.35962 | 37139 ft | 475 kts | 74° |
| 2026-05-04 23:56 | 52.94957 | -40.25491 | 37150 ft | 475 kts | 74° |
| 2026-05-04 23:57 | 52.97002 | -40.15147 | 37159 ft | 475 kts | 73° |
| 2026-05-04 23:57 | 52.99050 | -40.04732 | 37156 ft | 475 kts | 73° |
| 2026-05-04 23:58 | 53.01007 | -39.94274 | 37164 ft | 474 kts | 77° |
| 2026-05-04 23:58 | 53.02505 | -39.83619 | 37178 ft | 473 kts | 79° |
| 2026-05-04 23:59 | 53.03913 | -39.72936 | 37189 ft | 474 kts | 79° |
| 2026-05-04 23:59 | 53.05377 | -39.62262 | 37195 ft | 474 kts | 78° |
| 2026-05-05 00:00 | 53.06876 | -39.51581 | 37196 ft | 475 kts | 77° |
| 2026-05-05 00:00 | 53.08380 | -39.40868 | 37205 ft | 477 kts | 77° |
| 2026-05-05 00:01 | 53.09878 | -39.30111 | 37205 ft | 478 kts | 77° |
| 2026-05-05 00:01 | 53.11365 | -39.19338 | 37219 ft | 478 kts | 77° |
| 2026-05-05 00:02 | 53.12841 | -39.08564 | 37220 ft | 477 kts | 77° |
| 2026-05-05 00:02 | 53.14306 | -38.97780 | 37229 ft | 477 kts | 78° |
| 2026-05-05 00:03 | 53.15763 | -38.86987 | 37226 ft | 477 kts | 78° |
| 2026-05-05 00:03 | 53.17209 | -38.76190 | 37222 ft | 477 kts | 78° |
| 2026-05-05 00:04 | 53.18645 | -38.65389 | 37225 ft | 477 kts | 78° |
| 2026-05-05 00:04 | 53.20072 | -38.54578 | 37246 ft | 478 kts | 77° |
| 2026-05-05 00:05 | 53.21493 | -38.43732 | 37231 ft | 479 kts | 77° |
| 2026-05-05 00:05 | 53.22905 | -38.32867 | 37242 ft | 479 kts | 77° |
| 2026-05-05 00:06 | 53.24308 | -38.21993 | 37256 ft | 479 kts | 77° |
| 2026-05-05 00:06 | 53.25701 | -38.11102 | 37258 ft | 480 kts | 77° |
| 2026-05-05 00:07 | 53.27077 | -38.00262 | 37260 ft | 480 kts | 76° |
| 2026-05-05 00:07 | 53.28451 | -37.89360 | 37276 ft | 479 kts | 76° |
| 2026-05-05 00:08 | 53.29815 | -37.78455 | 37268 ft | 479 kts | 76° |
| 2026-05-05 00:08 | 53.31169 | -37.67540 | 37285 ft | 479 kts | 76° |
| 2026-05-05 00:09 | 53.32513 | -37.56618 | 37283 ft | 480 kts | 77° |
| 2026-05-05 00:09 | 53.33846 | -37.45688 | 37291 ft | 479 kts | 76° |
| 2026-05-05 00:10 | 53.35165 | -37.34791 | 37290 ft | 477 kts | 76° |
| 2026-05-05 00:10 | 53.36472 | -37.23905 | 37300 ft | 477 kts | 76° |
| 2026-05-05 00:11 | 53.37770 | -37.13015 | 37299 ft | 477 kts | 76° |
| 2026-05-05 00:11 | 53.39057 | -37.02113 | 37312 ft | 477 kts | 76° |
| 2026-05-05 00:12 | 53.40333 | -36.91212 | 37318 ft | 477 kts | 75° |
| 2026-05-05 00:12 | 53.41598 | -36.80321 | 37318 ft | 476 kts | 75° |
| 2026-05-05 00:13 | 53.42853 | -36.69427 | 37319 ft | 476 kts | 75° |
| 2026-05-05 00:13 | 53.44098 | -36.58531 | 37328 ft | 476 kts | 75° |
| 2026-05-05 00:14 | 53.45333 | -36.47621 | 37330 ft | 476 kts | 75° |
| 2026-05-05 00:14 | 53.46549 | -36.36780 | 37338 ft | 476 kts | 75° |
| 2026-05-05 00:15 | 53.47760 | -36.25888 | 37336 ft | 474 kts | 75° |
| 2026-05-05 00:15 | 53.48962 | -36.14995 | 37341 ft | 474 kts | 75° |
| 2026-05-05 00:16 | 53.50154 | -36.04100 | 37341 ft | 475 kts | 75° |
| 2026-05-05 00:16 | 53.51146 | -35.94958 | 37349 ft | 475 kts | 75° |
| 2026-05-05 00:17 | 53.52320 | -35.84042 | 37364 ft | 474 kts | 75° |
| 2026-05-05 00:17 | 53.53468 | -35.73250 | 37356 ft | 471 kts | 75° |
| 2026-05-05 00:18 | 53.54613 | -35.62408 | 37357 ft | 471 kts | 75° |
| 2026-05-05 00:18 | 53.55757 | -35.51480 | 37365 ft | 472 kts | 75° |
| 2026-05-05 00:19 | 53.56885 | -35.40611 | 37367 ft | 472 kts | 75° |
| 2026-05-05 00:19 | 53.57995 | -35.29806 | 37385 ft | 472 kts | 75° |
| 2026-05-05 00:20 | 53.59100 | -35.18939 | 37360 ft | 471 kts | 75° |
| 2026-05-05 00:20 | 53.60196 | -35.08067 | 37374 ft | 471 kts | 75° |
| 2026-05-05 00:21 | 53.61282 | -34.97195 | 37372 ft | 471 kts | 75° |
| 2026-05-05 00:21 | 53.62358 | -34.86318 | 37382 ft | 471 kts | 75° |
| 2026-05-05 00:22 | 53.63424 | -34.75431 | 37399 ft | 471 kts | 75° |
| 2026-05-05 00:22 | 53.64477 | -34.64562 | 37384 ft | 469 kts | 75° |
| 2026-05-05 00:23 | 53.65518 | -34.53720 | 37381 ft | 468 kts | 76° |
| 2026-05-05 00:23 | 53.66549 | -34.42880 | 37382 ft | 468 kts | 76° |
| 2026-05-05 00:24 | 53.67571 | -34.32028 | 37382 ft | 469 kts | 76° |
| 2026-05-05 00:24 | 53.68584 | -34.21167 | 37431 ft | 469 kts | 76° |
| 2026-05-05 00:25 | 53.69582 | -34.10327 | 37391 ft | 466 kts | 76° |
| 2026-05-05 00:25 | 53.70568 | -33.99528 | 37392 ft | 465 kts | 76° |
| 2026-05-05 00:26 | 53.71538 | -33.88805 | 37391 ft | 465 kts | 76° |
| 2026-05-05 00:26 | 53.72504 | -33.78004 | 37393 ft | 465 kts | 76° |
| 2026-05-05 00:27 | 53.73461 | -33.67191 | 37397 ft | 466 kts | 76° |
| 2026-05-05 00:27 | 53.74408 | -33.56371 | 37395 ft | 466 kts | 77° |
| 2026-05-05 00:28 | 53.75346 | -33.45544 | 37397 ft | 466 kts | 77° |
| 2026-05-05 00:28 | 53.76273 | -33.34711 | 37398 ft | 466 kts | 77° |
| 2026-05-05 00:29 | 53.77192 | -33.23874 | 37394 ft | 466 kts | 77° |
| 2026-05-05 00:29 | 53.78101 | -33.13024 | 37401 ft | 466 kts | 77° |
| 2026-05-05 00:30 | 53.79000 | -33.02173 | 37403 ft | 465 kts | 78° |
| 2026-05-05 00:30 | 53.79887 | -32.91334 | 37407 ft | 465 kts | 78° |
| 2026-05-05 00:31 | 53.80765 | -32.80485 | 37406 ft | 465 kts | 78° |
| 2026-05-05 00:31 | 53.81633 | -32.69638 | 37402 ft | 465 kts | 78° |
| 2026-05-05 00:32 | 53.82492 | -32.58780 | 37407 ft | 465 kts | 78° |
| 2026-05-05 00:32 | 53.83341 | -32.47922 | 37405 ft | 465 kts | 79° |
| 2026-05-05 00:33 | 53.84178 | -32.37076 | 37405 ft | 464 kts | 79° |
| 2026-05-05 00:33 | 53.85005 | -32.26235 | 37405 ft | 464 kts | 79° |
| 2026-05-05 00:34 | 53.85823 | -32.15390 | 37408 ft | 464 kts | 79° |
| 2026-05-05 00:34 | 53.86631 | -32.04536 | 37408 ft | 464 kts | 79° |
| 2026-05-05 00:35 | 53.87429 | -31.93677 | 37426 ft | 464 kts | 79° |
| 2026-05-05 00:35 | 53.88216 | -31.82830 | 37412 ft | 463 kts | 80° |
| 2026-05-05 00:36 | 53.88992 | -31.71992 | 37408 ft | 463 kts | 80° |
| 2026-05-05 00:36 | 53.89755 | -31.61215 | 37409 ft | 464 kts | 80° |
| 2026-05-05 00:37 | 53.90512 | -31.50360 | 37410 ft | 464 kts | 80° |
| 2026-05-05 00:37 | 53.91260 | -31.39498 | 37423 ft | 464 kts | 81° |
| 2026-05-05 00:38 | 53.91997 | -31.28650 | 37411 ft | 463 kts | 81° |
| 2026-05-05 00:38 | 53.92724 | -31.17805 | 37411 ft | 462 kts | 81° |
| 2026-05-05 00:39 | 53.93441 | -31.06956 | 37408 ft | 463 kts | 81° |
| 2026-05-05 00:39 | 53.94148 | -30.96107 | 37411 ft | 463 kts | 81° |
| 2026-05-05 00:40 | 53.94846 | -30.85250 | 37435 ft | 463 kts | 81° |
| 2026-05-05 00:40 | 53.95533 | -30.74396 | 37411 ft | 462 kts | 81° |
| 2026-05-05 00:41 | 53.96210 | -30.63543 | 37411 ft | 462 kts | 81° |
| 2026-05-05 00:41 | 53.96877 | -30.52691 | 37411 ft | 462 kts | 81° |
| 2026-05-05 00:42 | 53.97535 | -30.41827 | 37408 ft | 462 kts | 81° |
| 2026-05-05 00:42 | 53.98183 | -30.30962 | 37408 ft | 462 kts | 81° |
| 2026-05-05 00:43 | 53.98821 | -30.20092 | 37413 ft | 462 kts | 82° |
| 2026-05-05 00:43 | 53.99450 | -30.09214 | 37411 ft | 463 kts | 82° |
| 2026-05-05 00:44 | 54.00282 | -29.98406 | 37406 ft | 460 kts | 75° |
| 2026-05-05 00:44 | 54.01700 | -29.87818 | 37410 ft | 459 kts | 73° |
| 2026-05-05 00:45 | 54.03212 | -29.77268 | 37413 ft | 459 kts | 73° |
| 2026-05-05 00:45 | 54.04717 | -29.66797 | 37415 ft | 459 kts | 73° |
| 2026-05-05 00:46 | 54.06215 | -29.56239 | 37403 ft | 459 kts | 73° |
| 2026-05-05 00:46 | 54.07697 | -29.45664 | 37401 ft | 459 kts | 73° |
| 2026-05-05 00:47 | 54.09167 | -29.35088 | 37410 ft | 459 kts | 74° |
| 2026-05-05 00:47 | 54.10628 | -29.24504 | 37405 ft | 459 kts | 74° |
| 2026-05-05 00:48 | 54.12082 | -29.13900 | 37402 ft | 459 kts | 74° |
| 2026-05-05 00:48 | 54.13527 | -29.03288 | 37404 ft | 460 kts | 74° |
| 2026-05-05 00:49 | 54.14962 | -28.92670 | 37406 ft | 460 kts | 74° |
| 2026-05-05 00:49 | 54.16389 | -28.82040 | 37397 ft | 460 kts | 74° |
| 2026-05-05 00:50 | 54.17806 | -28.71405 | 37398 ft | 460 kts | 74° |
| 2026-05-05 00:50 | 54.19215 | -28.60752 | 37391 ft | 460 kts | 75° |
| 2026-05-05 00:51 | 54.20617 | -28.50076 | 37403 ft | 461 kts | 75° |
| 2026-05-05 00:51 | 54.22011 | -28.39376 | 37391 ft | 462 kts | 75° |
| 2026-05-05 00:52 | 54.23397 | -28.28661 | 37391 ft | 462 kts | 75° |
| 2026-05-05 00:52 | 54.24772 | -28.17941 | 37389 ft | 462 kts | 75° |
| 2026-05-05 00:53 | 54.26139 | -28.07212 | 37390 ft | 462 kts | 75° |
| 2026-05-05 00:53 | 54.27497 | -27.96476 | 37391 ft | 462 kts | 75° |
| 2026-05-05 00:54 | 54.28845 | -27.85728 | 37388 ft | 462 kts | 76° |
| 2026-05-05 00:54 | 54.30183 | -27.74978 | 37386 ft | 462 kts | 76° |
| 2026-05-05 00:55 | 54.31512 | -27.64215 | 37398 ft | 462 kts | 76° |
| 2026-05-05 00:55 | 54.32823 | -27.53520 | 37385 ft | 462 kts | 76° |
| 2026-05-05 00:56 | 54.34135 | -27.42731 | 37388 ft | 462 kts | 76° |
| 2026-05-05 00:56 | 54.35436 | -27.31939 | 37385 ft | 462 kts | 76° |
| 2026-05-05 00:57 | 54.36729 | -27.21134 | 37381 ft | 462 kts | 76° |
| 2026-05-05 00:57 | 54.38012 | -27.10321 | 37394 ft | 463 kts | 77° |
| 2026-05-05 00:58 | 54.39286 | -26.99501 | 37378 ft | 463 kts | 77° |
| 2026-05-05 00:58 | 54.40549 | -26.88682 | 37376 ft | 463 kts | 77° |
| 2026-05-05 00:59 | 54.41803 | -26.77850 | 37370 ft | 463 kts | 77° |
| 2026-05-05 00:59 | 54.43048 | -26.67007 | 37378 ft | 463 kts | 77° |
| 2026-05-05 01:00 | 54.44282 | -26.56165 | 37376 ft | 463 kts | 77° |
| 2026-05-05 01:00 | 54.45508 | -26.45305 | 37376 ft | 463 kts | 78° |
| 2026-05-05 01:01 | 54.46723 | -26.34448 | 37364 ft | 463 kts | 78° |
| 2026-05-05 01:01 | 54.47929 | -26.23580 | 37373 ft | 463 kts | 78° |
| 2026-05-05 01:02 | 54.49126 | -26.12694 | 37372 ft | 463 kts | 78° |
| 2026-05-05 01:02 | 54.50114 | -26.03640 | 37380 ft | 463 kts | 78° |
| 2026-05-05 01:03 | 54.51293 | -25.92747 | 37362 ft | 463 kts | 78° |
| 2026-05-05 01:03 | 54.52462 | -25.81845 | 37362 ft | 463 kts | 78° |
| 2026-05-05 01:04 | 54.53621 | -25.70943 | 37354 ft | 463 kts | 78° |
| 2026-05-05 01:04 | 54.55342 | -25.54573 | 37361 ft | 463 kts | 79° |
| 2026-05-05 01:05 | 54.56477 | -25.43647 | 37366 ft | 463 kts | 79° |
| 2026-05-05 01:05 | 54.57602 | -25.32723 | 37356 ft | 463 kts | 79° |
| 2026-05-05 01:06 | 54.58717 | -25.21794 | 37362 ft | 463 kts | 79° |
| 2026-05-05 01:06 | 54.59822 | -25.10856 | 37362 ft | 463 kts | 79° |
| 2026-05-05 01:07 | 54.60917 | -24.99912 | 37347 ft | 463 kts | 79° |
| 2026-05-05 01:07 | 54.62002 | -24.88965 | 37349 ft | 463 kts | 79° |
| 2026-05-05 01:08 | 54.63077 | -24.78013 | 37347 ft | 463 kts | 79° |
| 2026-05-05 01:08 | 54.64142 | -24.67051 | 37346 ft | 463 kts | 80° |
| 2026-05-05 01:09 | 54.65198 | -24.56083 | 37344 ft | 463 kts | 80° |
| 2026-05-05 01:09 | 54.66245 | -24.45105 | 37347 ft | 463 kts | 80° |
| 2026-05-05 01:10 | 54.67280 | -24.34127 | 37344 ft | 463 kts | 80° |
| 2026-05-05 01:10 | 54.68307 | -24.23139 | 37344 ft | 463 kts | 80° |
| 2026-05-05 01:11 | 54.69323 | -24.12143 | 37339 ft | 463 kts | 80° |
| 2026-05-05 01:11 | 54.70330 | -24.01140 | 37329 ft | 463 kts | 81° |
| 2026-05-05 01:12 | 54.71327 | -23.90128 | 37333 ft | 464 kts | 81° |
| 2026-05-05 01:12 | 54.72315 | -23.79100 | 37333 ft | 464 kts | 81° |
| 2026-05-05 01:13 | 54.73293 | -23.68069 | 37330 ft | 464 kts | 81° |
| 2026-05-05 01:13 | 54.74261 | -23.57029 | 37330 ft | 464 kts | 81° |
| 2026-05-05 01:14 | 54.75219 | -23.45986 | 37330 ft | 464 kts | 81° |
| 2026-05-05 01:14 | 54.76159 | -23.35028 | 37339 ft | 462 kts | 81° |
| 2026-05-05 01:15 | 54.77092 | -23.24039 | 37330 ft | 461 kts | 81° |
| 2026-05-05 01:15 | 54.78013 | -23.13054 | 37322 ft | 461 kts | 81° |
| 2026-05-05 01:16 | 54.78925 | -23.02063 | 37322 ft | 461 kts | 81° |
| 2026-05-05 01:16 | 54.79827 | -22.91075 | 37319 ft | 461 kts | 81° |
| 2026-05-05 01:17 | 54.80719 | -22.80072 | 37319 ft | 461 kts | 82° |
| 2026-05-05 01:17 | 54.81601 | -22.69069 | 37314 ft | 461 kts | 82° |
| 2026-05-05 01:18 | 54.82473 | -22.58062 | 37317 ft | 461 kts | 82° |
| 2026-05-05 01:18 | 54.83335 | -22.47046 | 37317 ft | 461 kts | 82° |
| 2026-05-05 01:19 | 54.84187 | -22.36031 | 37317 ft | 461 kts | 82° |
| 2026-05-05 01:19 | 54.85029 | -22.25007 | 37318 ft | 461 kts | 82° |
| 2026-05-05 01:20 | 54.85862 | -22.13974 | 37311 ft | 461 kts | 82° |
| 2026-05-05 01:20 | 54.86683 | -22.02952 | 37308 ft | 461 kts | 82° |
| 2026-05-05 01:21 | 54.87495 | -21.91917 | 37309 ft | 461 kts | 82° |
| 2026-05-05 01:21 | 54.88298 | -21.80877 | 37303 ft | 461 kts | 82° |
| 2026-05-05 01:22 | 54.89089 | -21.69838 | 37314 ft | 461 kts | 82° |
| 2026-05-05 01:22 | 54.89871 | -21.58791 | 37306 ft | 461 kts | 82° |
| 2026-05-05 01:23 | 54.90643 | -21.47737 | 37306 ft | 461 kts | 82° |
| 2026-05-05 01:23 | 54.91406 | -21.36677 | 37300 ft | 461 kts | 83° |
| 2026-05-05 01:24 | 54.92158 | -21.25615 | 37298 ft | 461 kts | 83° |
| 2026-05-05 01:24 | 54.92900 | -21.14550 | 37306 ft | 461 kts | 83° |
| 2026-05-05 01:25 | 54.93626 | -21.03560 | 37296 ft | 461 kts | 83° |
| 2026-05-05 01:25 | 54.94348 | -20.92484 | 37293 ft | 461 kts | 83° |
| 2026-05-05 01:26 | 54.95060 | -20.81410 | 37293 ft | 461 kts | 83° |
| 2026-05-05 01:26 | 54.95762 | -20.70331 | 37293 ft | 461 kts | 83° |
| 2026-05-05 01:27 | 54.96453 | -20.59248 | 37301 ft | 461 kts | 83° |
| 2026-05-05 01:27 | 54.97135 | -20.48161 | 37286 ft | 461 kts | 83° |
| 2026-05-05 01:28 | 54.97806 | -20.37076 | 37291 ft | 460 kts | 83° |
| 2026-05-05 01:28 | 54.98467 | -20.25990 | 37286 ft | 461 kts | 83° |
| 2026-05-05 01:29 | 54.99118 | -20.14893 | 37288 ft | 460 kts | 83° |
| 2026-05-05 01:29 | 54.99759 | -20.03798 | 37283 ft | 460 kts | 83° |
| 2026-05-05 01:30 | 55.00288 | -19.92688 | 37284 ft | 460 kts | 87° |
| 2026-05-05 01:30 | 55.00456 | -19.81534 | 37276 ft | 461 kts | 88° |
| 2026-05-05 01:31 | 55.00577 | -19.70380 | 37278 ft | 461 kts | 88° |
| 2026-05-05 01:31 | 55.00739 | -19.59220 | 37278 ft | 461 kts | 88° |
| 2026-05-05 01:32 | 55.00923 | -19.48065 | 37277 ft | 461 kts | 88° |
| 2026-05-05 01:32 | 55.01103 | -19.36915 | 37275 ft | 460 kts | 88° |
| 2026-05-05 01:33 | 55.01269 | -19.25851 | 37273 ft | 460 kts | 88° |
| 2026-05-05 01:33 | 55.01426 | -19.14710 | 37274 ft | 460 kts | 88° |
| 2026-05-05 01:34 | 55.01571 | -19.03570 | 37272 ft | 460 kts | 88° |
| 2026-05-05 01:34 | 55.01706 | -18.92427 | 37271 ft | 460 kts | 88° |
| 2026-05-05 01:35 | 55.01831 | -18.81290 | 37264 ft | 459 kts | 88° |
| 2026-05-05 01:35 | 55.01945 | -18.70170 | 37264 ft | 459 kts | 88° |
| 2026-05-05 01:36 | 55.02050 | -18.59049 | 37265 ft | 459 kts | 88° |
| 2026-05-05 01:36 | 55.02144 | -18.47926 | 37265 ft | 459 kts | 88° |
| 2026-05-05 01:37 | 55.02228 | -18.36810 | 37260 ft | 459 kts | 88° |
| 2026-05-05 01:37 | 55.02302 | -18.25691 | 37261 ft | 459 kts | 89° |
| 2026-05-05 01:38 | 55.02366 | -18.14582 | 37258 ft | 458 kts | 89° |
| 2026-05-05 01:38 | 55.02420 | -18.03480 | 37258 ft | 458 kts | 89° |
| 2026-05-05 01:39 | 55.02464 | -17.92372 | 37251 ft | 458 kts | 89° |
| 2026-05-05 01:39 | 55.02497 | -17.81268 | 37251 ft | 458 kts | 89° |
| 2026-05-05 01:40 | 55.02520 | -17.70155 | 37250 ft | 458 kts | 89° |
| 2026-05-05 01:40 | 55.02534 | -17.59049 | 37246 ft | 458 kts | 89° |
| 2026-05-05 01:41 | 55.02537 | -17.47955 | 37249 ft | 458 kts | 89° |
| 2026-05-05 01:41 | 55.02530 | -17.36872 | 37249 ft | 458 kts | 89° |
| 2026-05-05 01:42 | 55.02513 | -17.25779 | 37246 ft | 458 kts | 89° |
| 2026-05-05 01:42 | 55.02486 | -17.14688 | 37248 ft | 458 kts | 89° |
| 2026-05-05 01:43 | 55.02449 | -17.03591 | 37244 ft | 458 kts | 89° |
| 2026-05-05 01:43 | 55.02401 | -16.92503 | 37243 ft | 458 kts | 90° |
| 2026-05-05 01:44 | 55.02344 | -16.81415 | 37240 ft | 458 kts | 90° |
| 2026-05-05 01:44 | 55.02277 | -16.70321 | 37241 ft | 458 kts | 90° |
| 2026-05-05 01:45 | 55.02199 | -16.59231 | 37249 ft | 458 kts | 90° |
| 2026-05-05 01:45 | 55.02112 | -16.48218 | 37243 ft | 457 kts | 90° |
| 2026-05-05 01:46 | 55.02015 | -16.37136 | 37238 ft | 457 kts | 90° |
| 2026-05-05 01:46 | 55.01907 | -16.26050 | 37238 ft | 457 kts | 90° |
| 2026-05-05 01:47 | 55.01789 | -16.14967 | 37235 ft | 457 kts | 90° |
| 2026-05-05 01:47 | 55.01662 | -16.03891 | 37235 ft | 457 kts | 90° |
| 2026-05-05 01:48 | 55.01524 | -15.92818 | 37237 ft | 457 kts | 91° |
| 2026-05-05 01:48 | 55.01401 | -15.83548 | 37228 ft | 457 kts | 91° |
| 2026-05-05 01:49 | 55.01245 | -15.72490 | 37234 ft | 457 kts | 91° |
| 2026-05-05 01:49 | 55.01079 | -15.61435 | 37226 ft | 457 kts | 91° |
| 2026-05-05 01:50 | 55.00903 | -15.50378 | 37228 ft | 457 kts | 91° |
| 2026-05-05 01:50 | 55.00717 | -15.39319 | 37228 ft | 456 kts | 91° |
| 2026-05-05 01:51 | 55.00521 | -15.28273 | 37224 ft | 456 kts | 91° |
| 2026-05-05 01:51 | 55.00315 | -15.17231 | 37218 ft | 456 kts | 91° |
| 2026-05-05 01:52 | 55.00099 | -15.06190 | 37218 ft | 456 kts | 91° |
| 2026-05-05 01:52 | 54.99902 | -14.95147 | 37213 ft | 456 kts | 90° |
| 2026-05-05 01:53 | 54.99938 | -14.84110 | 37220 ft | 456 kts | 88° |
| 2026-05-05 01:53 | 55.00025 | -14.73077 | 37211 ft | 456 kts | 89° |
| 2026-05-05 01:54 | 55.00070 | -14.62116 | 37209 ft | 456 kts | 89° |
| 2026-05-05 01:54 | 55.00081 | -14.51008 | 37209 ft | 456 kts | 89° |
| 2026-05-05 01:55 | 55.00075 | -14.39971 | 37208 ft | 456 kts | 89° |
| 2026-05-05 01:55 | 55.00059 | -14.29006 | 37214 ft | 456 kts | 89° |
| 2026-05-05 01:56 | 55.00034 | -14.17957 | 37205 ft | 456 kts | 89° |
| 2026-05-05 01:56 | 55.00000 | -14.06905 | 37198 ft | 456 kts | 89° |
| 2026-05-05 01:57 | 54.99152 | -13.95969 | 37199 ft | 457 kts | 105° |
| 2026-05-05 01:57 | 54.97333 | -13.85347 | 37195 ft | 458 kts | 108° |
| 2026-05-05 01:58 | 54.95344 | -13.74820 | 37197 ft | 458 kts | 108° |
| 2026-05-05 01:58 | 54.93339 | -13.64307 | 37197 ft | 458 kts | 108° |
| 2026-05-05 01:59 | 54.91345 | -13.53791 | 37189 ft | 458 kts | 108° |
| 2026-05-05 01:59 | 54.89355 | -13.43286 | 37189 ft | 458 kts | 108° |
| 2026-05-05 02:00 | 54.87356 | -13.32781 | 37192 ft | 458 kts | 108° |
| 2026-05-05 02:00 | 54.85347 | -13.22286 | 37189 ft | 458 kts | 108° |
| 2026-05-05 02:01 | 54.83327 | -13.11797 | 37195 ft | 458 kts | 108° |
| 2026-05-05 02:01 | 54.81300 | -13.01328 | 37178 ft | 458 kts | 108° |
| 2026-05-05 02:02 | 54.79268 | -12.90887 | 37181 ft | 457 kts | 108° |
| 2026-05-05 02:02 | 54.77227 | -12.80460 | 37175 ft | 457 kts | 108° |
| 2026-05-05 02:03 | 54.75177 | -12.70043 | 37177 ft | 457 kts | 109° |
| 2026-05-05 02:03 | 54.73119 | -12.59636 | 37175 ft | 457 kts | 109° |
| 2026-05-05 02:04 | 54.71051 | -12.49238 | 37180 ft | 457 kts | 109° |
| 2026-05-05 02:04 | 54.68975 | -12.38856 | 37168 ft | 457 kts | 109° |
| 2026-05-05 02:05 | 54.66889 | -12.28480 | 37168 ft | 457 kts | 109° |
| 2026-05-05 02:05 | 54.64807 | -12.18177 | 37157 ft | 457 kts | 109° |
| 2026-05-05 02:06 | 54.62690 | -12.07754 | 37164 ft | 457 kts | 109° |
| 2026-05-05 02:06 | 54.60595 | -11.97491 | 37165 ft | 457 kts | 109° |
| 2026-05-05 02:07 | 54.58475 | -11.87166 | 37161 ft | 457 kts | 109° |
| 2026-05-05 02:07 | 54.56347 | -11.76848 | 37158 ft | 457 kts | 109° |
| 2026-05-05 02:08 | 54.54207 | -11.66532 | 37159 ft | 457 kts | 109° |
| 2026-05-05 02:08 | 54.52062 | -11.56239 | 37156 ft | 457 kts | 109° |
| 2026-05-05 02:09 | 54.49906 | -11.45950 | 37157 ft | 457 kts | 110° |
| 2026-05-05 02:09 | 54.47742 | -11.35675 | 37150 ft | 457 kts | 110° |
| 2026-05-05 02:10 | 54.45570 | -11.25415 | 37151 ft | 456 kts | 110° |
| 2026-05-05 02:10 | 54.43392 | -11.15173 | 37148 ft | 456 kts | 110° |
| 2026-05-05 02:11 | 54.41205 | -11.04947 | 37147 ft | 456 kts | 110° |
| 2026-05-05 02:11 | 54.39010 | -10.94732 | 37148 ft | 456 kts | 110° |
| 2026-05-05 02:12 | 54.35700 | -10.79423 | 37150 ft | 456 kts | 110° |
| 2026-05-05 02:13 | 54.33483 | -10.69233 | 37144 ft | 456 kts | 110° |
| 2026-05-05 02:13 | 54.31259 | -10.59060 | 37144 ft | 456 kts | 110° |
| 2026-05-05 02:14 | 54.29028 | -10.48904 | 37139 ft | 456 kts | 111° |
| 2026-05-05 02:14 | 54.26791 | -10.38773 | 37142 ft | 455 kts | 111° |
| 2026-05-05 02:15 | 54.24546 | -10.28658 | 37142 ft | 455 kts | 111° |
| 2026-05-05 02:15 | 54.22293 | -10.18550 | 37138 ft | 455 kts | 111° |
| 2026-05-05 02:16 | 54.20048 | -10.08529 | 37144 ft | 455 kts | 111° |
| 2026-05-05 02:16 | 54.17778 | -9.98448 | 37137 ft | 455 kts | 111° |
| 2026-05-05 02:17 | 54.15502 | -9.88384 | 37134 ft | 455 kts | 111° |
| 2026-05-05 02:17 | 54.13218 | -9.78334 | 37134 ft | 455 kts | 111° |
| 2026-05-05 02:18 | 54.10924 | -9.68289 | 37134 ft | 455 kts | 111° |
| 2026-05-05 02:18 | 54.08623 | -9.58262 | 37134 ft | 454 kts | 111° |
| 2026-05-05 02:19 | 54.06316 | -9.48251 | 37133 ft | 454 kts | 111° |
| 2026-05-05 02:19 | 54.04001 | -9.38258 | 37131 ft | 454 kts | 112° |
| 2026-05-05 02:20 | 54.01677 | -9.28273 | 37126 ft | 454 kts | 112° |
| 2026-05-05 02:20 | 53.99348 | -9.18308 | 37129 ft | 454 kts | 112° |
| 2026-05-05 02:21 | 53.97008 | -9.08349 | 37128 ft | 454 kts | 112° |
| 2026-05-05 02:21 | 53.94661 | -8.98400 | 37123 ft | 454 kts | 112° |
| 2026-05-05 02:22 | 53.92306 | -8.88465 | 37142 ft | 453 kts | 112° |
| 2026-05-05 02:22 | 53.91103 | -8.83523 | 37253 ft | 454 kts | 115° |
| 2026-05-05 02:22 | 53.89675 | -8.78729 | 37371 ft | 457 kts | 118° |
| 2026-05-05 02:22 | 53.88172 | -8.73968 | 37474 ft | 460 kts | 119° |
| 2026-05-05 02:23 | 53.86629 | -8.69204 | 37602 ft | 462 kts | 119° |
| 2026-05-05 02:23 | 53.85068 | -8.64449 | 37792 ft | 463 kts | 119° |
| 2026-05-05 02:23 | 53.83498 | -8.59690 | 37998 ft | 463 kts | 119° |
| 2026-05-05 02:23 | 53.81926 | -8.54934 | 38216 ft | 463 kts | 119° |
| 2026-05-05 02:24 | 53.80357 | -8.50185 | 38457 ft | 462 kts | 119° |
| 2026-05-05 02:24 | 53.78789 | -8.45439 | 38656 ft | 462 kts | 119° |
| 2026-05-05 02:24 | 53.77222 | -8.40699 | 38860 ft | 462 kts | 119° |
| 2026-05-05 02:24 | 53.75654 | -8.35960 | 39006 ft | 462 kts | 119° |
| 2026-05-05 02:25 | 53.74083 | -8.31221 | 39106 ft | 463 kts | 119° |
| 2026-05-05 02:25 | 53.70936 | -8.21753 | 39117 ft | 460 kts | 119° |
| 2026-05-05 02:26 | 53.67826 | -8.12437 | 39115 ft | 458 kts | 119° |
| 2026-05-05 02:26 | 53.64699 | -8.03102 | 39116 ft | 457 kts | 120° |
| 2026-05-05 02:27 | 53.61564 | -7.93781 | 39116 ft | 457 kts | 120° |
| 2026-05-05 02:27 | 53.58421 | -7.84472 | 39112 ft | 457 kts | 120° |
| 2026-05-05 02:28 | 53.55273 | -7.75183 | 39114 ft | 457 kts | 120° |
| 2026-05-05 02:28 | 53.52117 | -7.65907 | 39109 ft | 457 kts | 120° |
| 2026-05-05 02:29 | 53.48958 | -7.56654 | 39114 ft | 456 kts | 120° |
| 2026-05-05 02:29 | 53.45794 | -7.47424 | 39113 ft | 456 kts | 120° |
| 2026-05-05 02:30 | 53.42625 | -7.38212 | 39113 ft | 456 kts | 120° |
| 2026-05-05 02:30 | 53.39450 | -7.29017 | 39113 ft | 456 kts | 120° |
| 2026-05-05 02:31 | 53.36267 | -7.19834 | 39111 ft | 456 kts | 120° |
| 2026-05-05 02:31 | 53.33082 | -7.10678 | 39104 ft | 455 kts | 120° |
| 2026-05-05 02:32 | 53.29888 | -7.01531 | 39105 ft | 455 kts | 120° |
| 2026-05-05 02:32 | 53.26691 | -6.92407 | 39106 ft | 455 kts | 120° |
| 2026-05-05 02:33 | 53.23483 | -6.83288 | 39101 ft | 455 kts | 120° |
| 2026-05-05 02:33 | 53.20815 | -6.75728 | 39100 ft | 455 kts | 120° |
| 2026-05-05 02:34 | 53.17597 | -6.66638 | 39103 ft | 455 kts | 120° |
| 2026-05-05 02:34 | 53.14372 | -6.57565 | 39101 ft | 455 kts | 121° |
| 2026-05-05 02:35 | 53.11139 | -6.48502 | 39102 ft | 455 kts | 121° |
| 2026-05-05 02:35 | 53.07903 | -6.39462 | 39093 ft | 455 kts | 120° |
| 2026-05-05 02:36 | 53.04661 | -6.30439 | 39094 ft | 454 kts | 120° |
| 2026-05-05 02:36 | 53.01419 | -6.21446 | 39091 ft | 453 kts | 120° |
| 2026-05-05 02:37 | 52.98170 | -6.12468 | 39084 ft | 454 kts | 121° |
| 2026-05-05 02:37 | 52.94914 | -6.03504 | 39083 ft | 454 kts | 121° |
| 2026-05-05 02:38 | 52.91652 | -5.94553 | 39085 ft | 454 kts | 121° |
| 2026-05-05 02:38 | 52.88383 | -5.85616 | 39080 ft | 453 kts | 121° |
| 2026-05-05 02:39 | 52.85108 | -5.76695 | 39076 ft | 454 kts | 121° |
| 2026-05-05 02:39 | 52.81820 | -5.67768 | 39078 ft | 455 kts | 121° |
| 2026-05-05 02:40 | 52.78522 | -5.58848 | 39077 ft | 455 kts | 121° |
| 2026-05-05 02:40 | 52.75217 | -5.49940 | 39075 ft | 455 kts | 121° |
| 2026-05-05 02:41 | 52.72159 | -5.40814 | 39070 ft | 454 kts | 116° |
| 2026-05-05 02:41 | 52.69361 | -5.31472 | 39070 ft | 454 kts | 116° |
| 2026-05-05 02:42 | 52.66535 | -5.22163 | 39066 ft | 454 kts | 116° |
| 2026-05-05 02:42 | 52.63649 | -5.12909 | 39064 ft | 455 kts | 117° |
| 2026-05-05 02:43 | 52.60725 | -5.03656 | 39067 ft | 455 kts | 117° |
| 2026-05-05 02:43 | 52.57796 | -4.94430 | 39063 ft | 456 kts | 117° |
| 2026-05-05 02:44 | 52.54853 | -4.85184 | 39061 ft | 456 kts | 117° |
| 2026-05-05 02:44 | 52.51926 | -4.76019 | 39059 ft | 456 kts | 117° |
| 2026-05-05 02:45 | 52.48950 | -4.66735 | 39059 ft | 457 kts | 117° |
| 2026-05-05 02:45 | 52.46007 | -4.57592 | 39050 ft | 456 kts | 117° |
| 2026-05-05 02:46 | 52.43039 | -4.48400 | 39048 ft | 456 kts | 117° |
| 2026-05-05 02:46 | 52.40067 | -4.39231 | 39050 ft | 454 kts | 118° |
| 2026-05-05 02:47 | 52.37102 | -4.30124 | 39044 ft | 453 kts | 118° |
| 2026-05-05 02:47 | 52.34130 | -4.21024 | 39045 ft | 453 kts | 118° |
| 2026-05-05 02:48 | 52.31150 | -4.11934 | 39048 ft | 453 kts | 118° |
| 2026-05-05 02:48 | 52.28164 | -4.02861 | 39045 ft | 454 kts | 118° |
| 2026-05-05 02:49 | 52.25172 | -3.93798 | 39050 ft | 453 kts | 118° |
| 2026-05-05 02:49 | 52.22172 | -3.84749 | 39045 ft | 453 kts | 118° |
| 2026-05-05 02:50 | 52.19172 | -3.75730 | 39042 ft | 453 kts | 118° |
| 2026-05-05 02:50 | 52.16162 | -3.66718 | 39042 ft | 453 kts | 119° |
| 2026-05-05 02:51 | 52.13148 | -3.57723 | 39040 ft | 453 kts | 119° |
| 2026-05-05 02:51 | 52.10127 | -3.48739 | 39040 ft | 453 kts | 119° |
| 2026-05-05 02:52 | 52.07099 | -3.39769 | 39041 ft | 453 kts | 119° |
| 2026-05-05 02:52 | 52.04064 | -3.30809 | 39037 ft | 453 kts | 119° |
| 2026-05-05 02:53 | 52.01041 | -3.21918 | 39030 ft | 453 kts | 119° |
| 2026-05-05 02:53 | 51.97994 | -3.12986 | 39023 ft | 453 kts | 119° |
| 2026-05-05 02:54 | 51.94934 | -3.04051 | 39012 ft | 453 kts | 119° |
| 2026-05-05 02:54 | 51.91870 | -2.95134 | 39006 ft | 453 kts | 119° |
| 2026-05-05 02:55 | 51.88797 | -2.86223 | 39004 ft | 454 kts | 120° |
| 2026-05-05 02:55 | 51.85714 | -2.77316 | 39029 ft | 454 kts | 120° |
| 2026-05-05 02:56 | 51.82624 | -2.68417 | 39028 ft | 454 kts | 120° |
| 2026-05-05 02:56 | 51.79526 | -2.59530 | 39026 ft | 454 kts | 120° |
| 2026-05-05 02:57 | 51.76422 | -2.50656 | 39023 ft | 454 kts | 120° |
| 2026-05-05 02:57 | 51.73313 | -2.41799 | 39020 ft | 454 kts | 120° |
| 2026-05-05 02:58 | 51.70200 | -2.32960 | 39023 ft | 453 kts | 120° |
| 2026-05-05 02:58 | 51.67080 | -2.24133 | 39020 ft | 453 kts | 120° |
| 2026-05-05 02:59 | 51.63955 | -2.15323 | 39021 ft | 453 kts | 120° |
| 2026-05-05 02:59 | 51.60822 | -2.06523 | 39021 ft | 453 kts | 121° |
| 2026-05-05 03:00 | 51.57681 | -1.97729 | 39021 ft | 453 kts | 121° |
| 2026-05-05 03:00 | 51.54536 | -1.88954 | 39019 ft | 453 kts | 121° |
| 2026-05-05 03:01 | 51.51390 | -1.80209 | 39026 ft | 452 kts | 121° |
| 2026-05-05 03:01 | 51.48239 | -1.71480 | 39023 ft | 452 kts | 121° |
| 2026-05-05 03:02 | 51.44575 | -1.63325 | 39020 ft | 451 kts | 130° |
| 2026-05-05 03:02 | 51.40573 | -1.55592 | 39017 ft | 451 kts | 131° |
| 2026-05-05 03:03 | 51.36542 | -1.47988 | 39012 ft | 451 kts | 131° |
| 2026-05-05 03:03 | 51.32481 | -1.40339 | 38999 ft | 451 kts | 131° |
| 2026-05-05 03:04 | 51.28422 | -1.32688 | 38998 ft | 451 kts | 131° |
| 2026-05-05 03:04 | 51.24368 | -1.25059 | 38997 ft | 450 kts | 131° |
| 2026-05-05 03:05 | 51.20307 | -1.17440 | 38996 ft | 450 kts | 131° |
| 2026-05-05 03:05 | 51.16246 | -1.09841 | 38994 ft | 451 kts | 131° |
| 2026-05-05 03:06 | 51.12176 | -1.02250 | 38994 ft | 451 kts | 131° |
| 2026-05-05 03:06 | 51.08102 | -0.94674 | 38995 ft | 451 kts | 132° |
| 2026-05-05 03:07 | 51.04024 | -0.87114 | 38994 ft | 450 kts | 132° |
| 2026-05-05 03:07 | 50.99944 | -0.79571 | 38996 ft | 450 kts | 132° |
| 2026-05-05 03:08 | 50.95859 | -0.72042 | 38994 ft | 450 kts | 132° |
| 2026-05-05 03:08 | 50.91769 | -0.64525 | 38996 ft | 450 kts | 132° |
| 2026-05-05 03:09 | 50.87678 | -0.57029 | 38993 ft | 450 kts | 132° |
| 2026-05-05 03:09 | 50.83582 | -0.49546 | 38990 ft | 449 kts | 133° |
| 2026-05-05 03:10 | 50.79486 | -0.42084 | 38990 ft | 449 kts | 133° |
| 2026-05-05 03:10 | 50.75386 | -0.34636 | 38988 ft | 449 kts | 133° |
| 2026-05-05 03:11 | 50.71241 | -0.27259 | 38991 ft | 448 kts | 137° |
| 2026-05-05 03:11 | 50.66376 | -0.21178 | 38984 ft | 446 kts | 146° |
| 2026-05-05 03:12 | 50.61233 | -0.15710 | 38985 ft | 445 kts | 148° |
| 2026-05-05 03:12 | 50.56064 | -0.10373 | 38982 ft | 444 kts | 148° |
| 2026-05-05 03:13 | 50.50906 | -0.05040 | 38980 ft | 444 kts | 148° |
| 2026-05-05 03:13 | 50.45793 | 0.00264 | 38970 ft | 443 kts | 148° |
| 2026-05-05 03:14 | 50.40652 | 0.05603 | 38978 ft | 443 kts | 148° |
| 2026-05-05 03:14 | 50.35532 | 0.10900 | 38976 ft | 440 kts | 148° |
| 2026-05-05 03:15 | 50.30424 | 0.16167 | 38970 ft | 439 kts | 148° |
| 2026-05-05 03:15 | 50.25314 | 0.21416 | 38971 ft | 439 kts | 148° |
| 2026-05-05 03:16 | 50.20202 | 0.26657 | 38965 ft | 439 kts | 148° |
| 2026-05-05 03:16 | 50.15105 | 0.31900 | 38965 ft | 437 kts | 148° |
| 2026-05-05 03:17 | 50.10038 | 0.37104 | 38958 ft | 436 kts | 148° |
| 2026-05-05 03:17 | 50.04969 | 0.42295 | 38957 ft | 436 kts | 148° |
| 2026-05-05 03:18 | 49.99902 | 0.47469 | 38959 ft | 436 kts | 149° |
| 2026-05-05 03:18 | 49.94826 | 0.52638 | 38951 ft | 437 kts | 149° |
| 2026-05-05 03:19 | 49.87209 | 0.60438 | 38942 ft | 439 kts | 145° |
| 2026-05-05 03:19 | 49.83445 | 0.65727 | 38947 ft | 441 kts | 136° |
| 2026-05-05 03:20 | 49.79254 | 0.72669 | 38945 ft | 442 kts | 135° |
| 2026-05-05 03:20 | 49.75130 | 0.79719 | 38942 ft | 442 kts | 134° |
| 2026-05-05 03:21 | 49.70996 | 0.86757 | 38945 ft | 442 kts | 134° |
| 2026-05-05 03:21 | 49.66848 | 0.93760 | 38931 ft | 442 kts | 135° |
| 2026-05-05 03:22 | 49.62679 | 1.00761 | 38938 ft | 442 kts | 135° |
| 2026-05-05 03:22 | 49.58509 | 1.07743 | 38934 ft | 442 kts | 135° |
| 2026-05-05 03:23 | 49.54334 | 1.14715 | 38935 ft | 442 kts | 135° |
| 2026-05-05 03:23 | 49.50188 | 1.21623 | 38937 ft | 442 kts | 135° |
| 2026-05-05 03:24 | 49.46015 | 1.28555 | 38938 ft | 441 kts | 135° |
| 2026-05-05 03:24 | 49.41837 | 1.35475 | 38930 ft | 441 kts | 135° |
| 2026-05-05 03:25 | 49.37653 | 1.42388 | 38933 ft | 442 kts | 135° |
| 2026-05-05 03:25 | 49.33463 | 1.49292 | 38926 ft | 442 kts | 135° |
| 2026-05-05 03:26 | 49.29271 | 1.56182 | 38921 ft | 442 kts | 135° |
| 2026-05-05 03:26 | 49.25070 | 1.63066 | 38918 ft | 442 kts | 135° |
| 2026-05-05 03:27 | 49.20864 | 1.69942 | 38908 ft | 443 kts | 135° |
| 2026-05-05 03:27 | 49.16653 | 1.76807 | 38908 ft | 443 kts | 136° |
| 2026-05-05 03:28 | 49.12434 | 1.83667 | 38906 ft | 443 kts | 136° |
| 2026-05-05 03:28 | 49.08207 | 1.90520 | 38911 ft | 443 kts | 136° |
| 2026-05-05 03:29 | 49.03979 | 1.97357 | 38910 ft | 443 kts | 136° |
| 2026-05-05 03:29 | 48.99740 | 2.04195 | 38911 ft | 444 kts | 136° |
| 2026-05-05 03:30 | 48.95499 | 2.11018 | 38909 ft | 444 kts | 136° |
| 2026-05-05 03:30 | 48.91281 | 2.17785 | 38888 ft | 444 kts | 136° |
| 2026-05-05 03:31 | 48.87034 | 2.24582 | 38882 ft | 443 kts | 136° |
| 2026-05-05 03:31 | 48.82789 | 2.31357 | 38882 ft | 443 kts | 136° |
| 2026-05-05 03:32 | 48.78544 | 2.38114 | 38884 ft | 443 kts | 136° |
| 2026-05-05 03:32 | 48.74291 | 2.44866 | 38884 ft | 443 kts | 136° |
| 2026-05-05 03:33 | 48.70034 | 2.51606 | 38881 ft | 443 kts | 136° |
| 2026-05-05 03:33 | 48.65777 | 2.58330 | 38881 ft | 443 kts | 136° |
| 2026-05-05 03:34 | 48.61518 | 2.65039 | 38879 ft | 441 kts | 136° |
| 2026-05-05 03:34 | 48.57618 | 2.72100 | 38884 ft | 445 kts | 124° |
| 2026-05-05 03:35 | 48.55241 | 2.80742 | 38885 ft | 451 kts | 104° |
| 2026-05-05 03:35 | 48.54583 | 2.90204 | 38891 ft | 455 kts | 96° |
| 2026-05-05 03:36 | 48.54300 | 2.99758 | 38884 ft | 456 kts | 95° |
| 2026-05-05 03:36 | 48.54033 | 3.09317 | 38884 ft | 456 kts | 96° |
| 2026-05-05 03:37 | 48.53719 | 3.18880 | 38886 ft | 456 kts | 96° |
| 2026-05-05 03:37 | 48.53376 | 3.28431 | 38887 ft | 456 kts | 96° |
| 2026-05-05 03:38 | 48.53022 | 3.37985 | 38888 ft | 456 kts | 96° |
| 2026-05-05 03:38 | 48.52662 | 3.47537 | 38887 ft | 456 kts | 97° |
| 2026-05-05 03:39 | 48.52295 | 3.57097 | 38889 ft | 457 kts | 97° |
| 2026-05-05 03:39 | 48.51919 | 3.66672 | 38892 ft | 457 kts | 97° |
| 2026-05-05 03:40 | 48.51535 | 3.76240 | 38892 ft | 457 kts | 97° |
| 2026-05-05 03:40 | 48.51145 | 3.85748 | 38892 ft | 457 kts | 97° |
| 2026-05-05 03:41 | 48.50741 | 3.95376 | 38892 ft | 457 kts | 97° |
| 2026-05-05 03:41 | 48.49427 | 4.04625 | 38895 ft | 448 kts | 115° |
| 2026-05-05 03:42 | 48.46787 | 4.13086 | 38897 ft | 446 kts | 121° |
| 2026-05-05 03:42 | 48.43909 | 4.21360 | 38897 ft | 446 kts | 121° |
| 2026-05-05 03:43 | 48.40999 | 4.29614 | 38893 ft | 446 kts | 121° |
| 2026-05-05 03:43 | 48.38100 | 4.37892 | 38902 ft | 448 kts | 121° |
| 2026-05-05 03:44 | 48.35199 | 4.46198 | 38906 ft | 449 kts | 121° |
| 2026-05-05 03:44 | 48.32311 | 4.54456 | 38899 ft | 449 kts | 121° |
| 2026-05-05 03:45 | 48.29396 | 4.62761 | 38896 ft | 450 kts | 121° |
| 2026-05-05 03:45 | 48.26472 | 4.71062 | 38907 ft | 450 kts | 121° |
| 2026-05-05 03:46 | 48.23537 | 4.79364 | 38905 ft | 451 kts | 121° |
| 2026-05-05 03:46 | 48.20590 | 4.87677 | 38913 ft | 452 kts | 121° |
| 2026-05-05 03:47 | 48.17637 | 4.95979 | 38911 ft | 452 kts | 121° |
| 2026-05-05 03:47 | 48.14676 | 5.04277 | 38914 ft | 452 kts | 121° |
| 2026-05-05 03:48 | 48.11710 | 5.12566 | 38905 ft | 452 kts | 121° |
| 2026-05-05 03:48 | 48.09378 | 5.21332 | 38916 ft | 457 kts | 110° |
| 2026-05-05 03:49 | 48.07571 | 5.30474 | 38920 ft | 459 kts | 109° |
| 2026-05-05 03:49 | 48.05840 | 5.39669 | 38920 ft | 460 kts | 109° |
| 2026-05-05 03:50 | 48.04097 | 5.48855 | 38918 ft | 459 kts | 109° |
| 2026-05-05 03:50 | 48.02331 | 5.58023 | 38917 ft | 459 kts | 109° |
| 2026-05-05 03:51 | 48.00554 | 5.67165 | 38919 ft | 458 kts | 109° |
| 2026-05-05 03:51 | 47.98769 | 5.76294 | 38921 ft | 458 kts | 109° |
| 2026-05-05 03:52 | 47.96991 | 5.85353 | 38922 ft | 458 kts | 109° |
| 2026-05-05 03:52 | 47.95195 | 5.94462 | 38908 ft | 458 kts | 109° |
| 2026-05-05 03:53 | 47.93394 | 6.03562 | 38926 ft | 457 kts | 109° |
| 2026-05-05 03:53 | 47.91587 | 6.12646 | 38923 ft | 457 kts | 109° |
| 2026-05-05 03:54 | 47.89774 | 6.21719 | 38923 ft | 457 kts | 109° |
| 2026-05-05 03:54 | 47.87954 | 6.30787 | 38930 ft | 457 kts | 109° |
| 2026-05-05 03:55 | 47.86127 | 6.39849 | 38924 ft | 456 kts | 110° |
| 2026-05-05 03:55 | 47.84299 | 6.48876 | 38929 ft | 455 kts | 110° |
| 2026-05-05 03:56 | 47.82465 | 6.57887 | 38933 ft | 455 kts | 110° |
| 2026-05-05 03:56 | 47.80620 | 6.66906 | 38925 ft | 457 kts | 109° |
| 2026-05-05 03:57 | 47.78763 | 6.75944 | 38904 ft | 457 kts | 110° |
| 2026-05-05 03:57 | 47.76901 | 6.84970 | 38917 ft | 456 kts | 110° |
| 2026-05-05 03:58 | 47.75036 | 6.93970 | 38914 ft | 455 kts | 110° |
| 2026-05-05 03:58 | 47.73164 | 7.02957 | 38913 ft | 455 kts | 110° |
| 2026-05-05 03:59 | 47.71287 | 7.11934 | 38907 ft | 455 kts | 110° |
| 2026-05-05 03:59 | 47.69404 | 7.20906 | 38901 ft | 455 kts | 110° |
| 2026-05-05 04:00 | 47.67526 | 7.29849 | 38902 ft | 453 kts | 110° |
| 2026-05-05 04:00 | 47.65641 | 7.38762 | 38905 ft | 453 kts | 110° |
| 2026-05-05 04:01 | 47.63745 | 7.47677 | 38902 ft | 453 kts | 110° |
| 2026-05-05 04:01 | 47.61774 | 7.56534 | 38899 ft | 452 kts | 112° |
| 2026-05-05 04:02 | 47.59687 | 7.65318 | 38911 ft | 452 kts | 112° |
| 2026-05-05 04:02 | 47.57612 | 7.74100 | 38913 ft | 451 kts | 112° |
| 2026-05-05 04:03 | 47.55546 | 7.82870 | 38912 ft | 450 kts | 112° |
| 2026-05-05 04:03 | 47.53473 | 7.91618 | 38921 ft | 451 kts | 112° |
| 2026-05-05 04:04 | 47.51387 | 8.00387 | 38926 ft | 454 kts | 112° |
| 2026-05-05 04:04 | 47.50511 | 8.04866 | 38922 ft | 453 kts | 99° |
| 2026-05-05 04:04 | 47.50270 | 8.09464 | 38932 ft | 445 kts | 94° |
| 2026-05-05 04:05 | 47.49922 | 8.13966 | 38924 ft | 437 kts | 106° |
| 2026-05-05 04:05 | 47.49349 | 8.16800 | 38932 ft | 433 kts | 115° |
| 2026-05-05 04:05 | 47.47974 | 8.20715 | 38929 ft | 427 kts | 128° |
| 2026-05-05 04:05 | 47.45383 | 8.25002 | 38932 ft | 421 kts | 143° |
| 2026-05-05 04:06 | 47.42993 | 8.27464 | 38928 ft | 417 kts | 154° |
| 2026-05-05 04:06 | 47.41235 | 8.28715 | 38935 ft | 415 kts | 162° |
| 2026-05-05 04:06 | 47.35648 | 8.30375 | 38933 ft | 409 kts | 182° |
| 2026-05-05 04:07 | 47.32829 | 8.30029 | 38936 ft | 406 kts | 193° |
| 2026-05-05 04:07 | 47.30115 | 8.28925 | 38932 ft | 405 kts | 203° |
| 2026-05-05 04:07 | 47.25348 | 8.24652 | 38937 ft | 403 kts | 223° |
| 2026-05-05 04:08 | 47.21936 | 8.18148 | 38934 ft | 403 kts | 243° |
| 2026-05-05 04:08 | 47.20483 | 8.10465 | 38480 ft | 399 kts | 265° |
| 2026-05-05 04:09 | 47.20326 | 8.06381 | 37931 ft | 400 kts | 263° |
| 2026-05-05 04:09 | 47.20013 | 8.02337 | 37446 ft | 398 kts | 259° |
| 2026-05-05 04:09 | 47.19629 | 7.98315 | 36980 ft | 397 kts | 261° |
| 2026-05-05 04:09 | 47.19525 | 7.94251 | 36504 ft | 400 kts | 270° |
| 2026-05-05 04:10 | 47.19912 | 7.90198 | 36010 ft | 401 kts | 279° |
| 2026-05-05 04:10 | 47.20873 | 7.86350 | 35220 ft | 405 kts | 293° |
| 2026-05-05 04:10 | 47.22470 | 7.82906 | 34364 ft | 411 kts | 305° |
| 2026-05-05 04:10 | 47.24541 | 7.79959 | 33388 ft | 418 kts | 316° |
| 2026-05-05 04:11 | 47.26969 | 7.77571 | 32419 ft | 422 kts | 326° |
| 2026-05-05 04:11 | 47.29667 | 7.75834 | 31620 ft | 422 kts | 338° |
| 2026-05-05 04:11 | 47.32503 | 7.74959 | 31193 ft | 413 kts | 352° |
| 2026-05-05 04:11 | 47.35351 | 7.75025 | 30708 ft | 406 kts | 4° |
| 2026-05-05 04:12 | 47.38109 | 7.75788 | 30115 ft | 401 kts | 14° |
| 2026-05-05 04:12 | 47.40730 | 7.77109 | 29412 ft | 396 kts | 22° |
| 2026-05-05 04:12 | 47.43154 | 7.78990 | 28670 ft | 392 kts | 33° |
| 2026-05-05 04:12 | 47.45301 | 7.81423 | 27980 ft | 386 kts | 44° |
| 2026-05-05 04:13 | 47.47080 | 7.84347 | 27324 ft | 380 kts | 57° |
| 2026-05-05 04:13 | 47.48388 | 7.87688 | 26681 ft | 372 kts | 70° |
| 2026-05-05 04:13 | 47.49129 | 7.91291 | 26037 ft | 363 kts | 83° |
| 2026-05-05 04:13 | 47.49552 | 7.94945 | 25424 ft | 359 kts | 85° |
| 2026-05-05 04:14 | 47.49943 | 7.98573 | 24906 ft | 356 kts | 85° |
| 2026-05-05 04:14 | 47.50344 | 8.02168 | 24434 ft | 353 kts | 84° |
| 2026-05-05 04:14 | 47.50613 | 8.05755 | 24337 ft | 349 kts | 95° |
| 2026-05-05 04:14 | 47.50299 | 8.09198 | 24179 ft | 338 kts | 112° |
| 2026-05-05 04:15 | 47.49279 | 8.12255 | 23699 ft | 324 kts | 133° |
| 2026-05-05 04:15 | 47.47666 | 8.14457 | 23115 ft | 311 kts | 153° |
| 2026-05-05 04:15 | 47.45693 | 8.15601 | 22494 ft | 302 kts | 173° |
| 2026-05-05 04:15 | 47.43627 | 8.15588 | 21889 ft | 295 kts | 193° |
| 2026-05-05 04:16 | 47.41748 | 8.14454 | 21303 ft | 293 kts | 213° |
| 2026-05-05 04:16 | 47.40290 | 8.12372 | 20708 ft | 294 kts | 233° |
| 2026-05-05 04:16 | 47.39420 | 8.09637 | 20141 ft | 298 kts | 252° |
| 2026-05-05 04:16 | 47.39171 | 8.06631 | 19604 ft | 301 kts | 264° |
| 2026-05-05 04:17 | 47.39144 | 8.03531 | 19039 ft | 302 kts | 265° |
| 2026-05-05 04:17 | 47.39087 | 8.00450 | 18502 ft | 300 kts | 263° |
| 2026-05-05 04:17 | 47.38962 | 7.97388 | 17925 ft | 298 kts | 262° |
| 2026-05-05 04:17 | 47.38813 | 7.94350 | 17306 ft | 296 kts | 264° |
| 2026-05-05 04:18 | 47.39026 | 7.91324 | 16707 ft | 299 kts | 283° |
| 2026-05-05 04:18 | 47.39958 | 7.88580 | 16124 ft | 303 kts | 306° |
| 2026-05-05 04:18 | 47.41560 | 7.86568 | 15541 ft | 306 kts | 329° |
| 2026-05-05 04:18 | 47.43580 | 7.85622 | 15028 ft | 307 kts | 354° |
| 2026-05-05 04:19 | 47.45703 | 7.85914 | 14663 ft | 310 kts | 18° |
| 2026-05-05 04:19 | 47.47564 | 7.87470 | 14303 ft | 309 kts | 45° |
| 2026-05-05 04:19 | 47.48771 | 7.90040 | 13951 ft | 305 kts | 72° |
| 2026-05-05 04:19 | 47.49296 | 7.93059 | 13630 ft | 303 kts | 83° |
| 2026-05-05 04:20 | 47.49646 | 7.96127 | 13284 ft | 303 kts | 84° |
| 2026-05-05 04:20 | 47.49988 | 7.99197 | 12990 ft | 302 kts | 83° |
| 2026-05-05 04:20 | 47.50333 | 8.02220 | 12918 ft | 293 kts | 83° |
| 2026-05-05 04:20 | 47.50451 | 8.05149 | 12930 ft | 283 kts | 96° |
| 2026-05-05 04:21 | 47.50175 | 8.08090 | 12932 ft | 289 kts | 105° |
| 2026-05-05 04:21 | 47.49713 | 8.10924 | 12927 ft | 280 kts | 108° |
| 2026-05-05 04:21 | 47.49198 | 8.13686 | 12931 ft | 278 kts | 109° |
| 2026-05-05 04:21 | 47.48661 | 8.16424 | 12929 ft | 277 kts | 109° |
| 2026-05-05 04:22 | 47.48111 | 8.19154 | 12874 ft | 276 kts | 110° |
| 2026-05-05 04:22 | 47.47556 | 8.21873 | 12671 ft | 276 kts | 110° |
| 2026-05-05 04:22 | 47.46998 | 8.24583 | 12411 ft | 275 kts | 110° |
| 2026-05-05 04:22 | 47.46446 | 8.27251 | 12165 ft | 275 kts | 110° |
| 2026-05-05 04:23 | 47.45887 | 8.29943 | 11925 ft | 274 kts | 110° |
| 2026-05-05 04:23 | 47.45328 | 8.32621 | 11666 ft | 272 kts | 110° |
| 2026-05-05 04:23 | 47.44589 | 8.35177 | 11392 ft | 269 kts | 123° |
| 2026-05-05 04:23 | 47.43382 | 8.37241 | 11149 ft | 265 kts | 143° |
| 2026-05-05 04:24 | 47.41819 | 8.38644 | 10900 ft | 262 kts | 155° |
| 2026-05-05 04:24 | 47.40169 | 8.39791 | 10645 ft | 262 kts | 156° |
| 2026-05-05 04:24 | 47.38515 | 8.40908 | 10406 ft | 261 kts | 156° |
| 2026-05-05 04:25 | 47.35232 | 8.43144 | 9925 ft | 259 kts | 156° |
| 2026-05-05 04:25 | 47.33602 | 8.44267 | 9640 ft | 258 kts | 156° |
| 2026-05-05 04:25 | 47.31972 | 8.45385 | 9353 ft | 258 kts | 156° |
| 2026-05-05 04:25 | 47.30347 | 8.46500 | 9087 ft | 257 kts | 155° |
| 2026-05-05 04:26 | 47.28728 | 8.47611 | 8788 ft | 257 kts | 155° |
| 2026-05-05 04:26 | 47.27114 | 8.48721 | 8514 ft | 255 kts | 155° |
| 2026-05-05 04:26 | 47.25510 | 8.49826 | 8267 ft | 254 kts | 155° |
| 2026-05-05 04:26 | 47.23907 | 8.50929 | 7988 ft | 254 kts | 155° |
| 2026-05-05 04:27 | 47.22310 | 8.52023 | 7705 ft | 253 kts | 155° |
| 2026-05-05 04:27 | 47.20704 | 8.53135 | 7332 ft | 257 kts | 153° |
| 2026-05-05 04:27 | 47.19265 | 8.54688 | 6933 ft | 260 kts | 130° |
| 2026-05-05 04:27 | 47.18489 | 8.57060 | 6538 ft | 262 kts | 99° |
| 2026-05-05 04:28 | 47.18665 | 8.59672 | 6386 ft | 255 kts | 71° |
| 2026-05-05 04:28 | 47.19345 | 8.62021 | 6344 ft | 244 kts | 65° |
| 2026-05-05 04:28 | 47.20062 | 8.64218 | 6314 ft | 233 kts | 65° |
| 2026-05-05 04:28 | 47.20758 | 8.66348 | 6275 ft | 230 kts | 65° |
| 2026-05-05 04:29 | 47.21646 | 8.68293 | 6233 ft | 231 kts | 41° |
| 2026-05-05 04:29 | 47.23099 | 8.69207 | 6216 ft | 229 kts | 7° |
| 2026-05-05 04:29 | 47.24660 | 8.69107 | 6167 ft | 224 kts | 348° |
| 2026-05-05 04:29 | 47.26121 | 8.68343 | 6004 ft | 223 kts | 335° |
| 2026-05-05 04:30 | 47.27524 | 8.67319 | 5680 ft | 227 kts | 335° |
| 2026-05-05 04:30 | 47.28958 | 8.66333 | 5306 ft | 224 kts | 337° |
| 2026-05-05 04:30 | 47.30337 | 8.65406 | 4926 ft | 212 kts | 337° |
| 2026-05-05 04:30 | 47.31636 | 8.64516 | 4575 ft | 200 kts | 337° |
| 2026-05-05 04:31 | 47.32863 | 8.63676 | 4274 ft | 189 kts | 337° |
| 2026-05-05 04:31 | 47.34021 | 8.62884 | 4001 ft | 178 kts | 336° |
| 2026-05-05 04:31 | 47.35117 | 8.62135 | 3741 ft | 169 kts | 336° |
| 2026-05-05 04:31 | 47.36142 | 8.61433 | 3514 ft | 156 kts | 336° |
| 2026-05-05 04:32 | 47.37095 | 8.60781 | 3294 ft | 146 kts | 336° |
| 2026-05-05 04:32 | 47.37997 | 8.60164 | 3078 ft | 141 kts | 336° |
| 2026-05-05 04:32 | 47.38890 | 8.59554 | 2867 ft | 142 kts | 336° |
| 2026-05-05 04:32 | 47.39773 | 8.58950 | 2661 ft | 141 kts | 335° |
| 2026-05-05 04:33 | 47.40657 | 8.58332 | 2440 ft | 140 kts | 335° |
| 2026-05-05 04:33 | 47.41540 | 8.57723 | 2249 ft | 140 kts | 335° |
| 2026-05-05 04:33 | 47.42432 | 8.57135 | 2005 ft | 140 kts | 335° |
| 2026-05-05 04:33 | 47.43307 | 8.56528 | 1813 ft | 139 kts | 334° |
| 2026-05-05 04:34 | 47.44180 | 8.55931 | 1621 ft | 137 kts | 336° |
| 2026-05-05 04:34 | 47.45042 | 8.55330 | 1432 ft | 135 kts | 335° |
| 2026-05-05 04:34 | 47.45778 | 8.54829 | 1399 ft | 82 kts | 335° |
| 2026-05-05 04:34 | 47.46190 | 8.54548 | 1404 ft | 59 kts | 333° |
| 2026-05-05 04:35 | 47.46399 | 8.54416 | 1384 ft | 10 kts | 359° |
| 2026-05-05 04:35 | 47.46454 | 8.54490 | 1384 ft | 11 kts | 59° |
| 2026-05-05 04:35 | 47.46471 | 8.54595 | 1387 ft | 10 kts | 97° |
| 2026-05-05 04:35 | 47.46425 | 8.54662 | 1387 ft | 10 kts | 149° |
| 2026-05-05 04:36 | 47.46352 | 8.54714 | 1385 ft | 13 kts | 155° |
| 2026-05-05 04:36 | 47.46306 | 8.54814 | 1401 ft | 12 kts | 101° |
| 2026-05-05 04:36 | 47.46295 | 8.54934 | 1401 ft | 12 kts | 97° |
| 2026-05-05 04:36 | 47.46287 | 8.55053 | 1397 ft | 12 kts | 96° |
| 2026-05-05 04:37 | 47.46279 | 8.55173 | 1402 ft | 12 kts | 96° |
| 2026-05-05 04:37 | 47.46269 | 8.55298 | 1402 ft | 13 kts | 96° |
| 2026-05-05 04:37 | 47.46260 | 8.55438 | 1404 ft | 15 kts | 96° |
| 2026-05-05 04:37 | 47.46249 | 8.55594 | 1409 ft | 15 kts | 96° |
| 2026-05-05 04:38 | 47.46238 | 8.55743 | 1405 ft | 12 kts | 97° |
| 2026-05-05 04:38 | 47.46207 | 8.55781 | 1412 ft | 4 kts | 172° |
| 2026-05-05 04:38 | 47.46172 | 8.55782 | 1414 ft | 6 kts | 182° |
| 2026-05-05 04:38 | 47.46155 | 8.55779 | 1414 ft | 0 kts | 187° |